Wetterdaten: Montag, 13.11.2023
Datum Zeit Temp. Aussen Temp. o. S. Temp +5cm Feuchte Auss Luftdruck Regen Sonnenschein Regendauer Solar Windben Empfang
13.11.2023 00:00 4,6 C 3,9 C 1,7 C 96 % 1009,5 hPa 0,0 l/m 0 min 0 min 0 W/m 0,0 km/h (0 Bft) 93,48 %
13.11.2023 00:02 4,6 C 3,9 C 1,7 C 96 % 1009,6 hPa 0,0 l/m 0 min 0 min 0 W/m 0,0 km/h (0 Bft) 94,59 %
13.11.2023 00:04 4,6 C 3,9 C 1,7 C 96 % 1009,6 hPa 0,0 l/m 0 min 0 min 0 W/m 0,0 km/h (0 Bft) 95,92 %
13.11.2023 00:08 4,6 C 3,9 C 1,7 C 96 % 1009,5 hPa 0,0 l/m 0 min 0 min 0 W/m 3,2 km/h (1 Bft) 95,83 %
13.11.2023 00:09 4,6 C 3,9 C 1,7 C 96 % 1009,5 hPa 0,0 l/m 0 min 0 min 0 W/m 0,0 km/h (0 Bft) 95,65 %
13.11.2023 00:10 4,6 C 3,9 C 1,7 C 96 % 1009,5 hPa 0,0 l/m 0 min 0 min 0 W/m 3,2 km/h (1 Bft) 96,49 %
13.11.2023 00:14 4,6 C 3,9 C 1,7 C 96 % 1009,4 hPa 0,0 l/m 0 min 0 min 0 W/m 0,0 km/h (0 Bft) 100,00 %
13.11.2023 00:16 4,6 C 3,9 C 1,7 C 96 % 1009,4 hPa 0,0 l/m 0 min 0 min 0 W/m 3,2 km/h (1 Bft) 100,00 %
13.11.2023 00:18 4,6 C 3,9 C 1,7 C 96 % 1009,4 hPa 0,0 l/m 0 min 0 min 0 W/m 3,2 km/h (1 Bft) 91,49 %
13.11.2023 00:20 4,6 C 3,9 C 1,7 C 96 % 1009,4 hPa 0,0 l/m 0 min 0 min 0 W/m 3,2 km/h (1 Bft) 95,74 %
13.11.2023 00:22 4,6 C 3,9 C 1,7 C 96 % 1009,4 hPa 0,0 l/m 0 min 0 min 0 W/m 3,2 km/h (1 Bft) 95,74 %
13.11.2023 00:24 4,6 C 3,9 C 1,7 C 96 % 1009,3 hPa 0,0 l/m 0 min 0 min 0 W/m 3,2 km/h (1 Bft) 93,62 %
13.11.2023 00:26 4,6 C 3,9 C 1,7 C 96 % 1009,3 hPa 0,0 l/m 0 min 0 min 0 W/m 3,2 km/h (1 Bft) 95,65 %
13.11.2023 00:28 4,7 C 3,9 C 1,7 C 96 % 1009,1 hPa 0,0 l/m 0 min 0 min 0 W/m 3,2 km/h (1 Bft) 95,74 %
13.11.2023 00:30 4,7 C 3,9 C 1,7 C 96 % 1009,1 hPa 0,0 l/m 0 min 0 min 0 W/m 0,0 km/h (0 Bft) 97,87 %
13.11.2023 00:32 4,7 C 3,9 C 1,7 C 96 % 1009,1 hPa 0,0 l/m 0 min 0 min 0 W/m 0,0 km/h (0 Bft) 97,87 %
13.11.2023 00:34 4,7 C 3,9 C 1,7 C 96 % 1009,2 hPa 0,0 l/m 0 min 0 min 0 W/m 3,2 km/h (1 Bft) 97,87 %
13.11.2023 00:36 4,7 C 3,9 C 1,7 C 96 % 1009,2 hPa 0,0 l/m 0 min 0 min 0 W/m 0,0 km/h (0 Bft) 93,62 %
13.11.2023 00:38 4,7 C 3,9 C 1,7 C 96 % 1009,1 hPa 0,0 l/m 0 min 0 min 0 W/m 0,0 km/h (0 Bft) 97,83 %
13.11.2023 00:40 4,7 C 3,9 C 1,7 C 96 % 1009,1 hPa 0,0 l/m 0 min 0 min 0 W/m 6,4 km/h (2 Bft) 97,87 %
13.11.2023 00:42 4,7 C 3,9 C 1,7 C 96 % 1008,9 hPa 0,0 l/m 0 min 0 min 0 W/m 3,2 km/h (1 Bft) 97,87 %
13.11.2023 00:44 4,7 C 3,9 C 1,7 C 96 % 1008,8 hPa 0,0 l/m 0 min 0 min 0 W/m 3,2 km/h (1 Bft) 97,87 %
13.11.2023 00:46 4,7 C 4,4 C 1,7 C 96 % 1008,8 hPa 0,0 l/m 0 min 0 min 0 W/m 3,2 km/h (1 Bft) 95,74 %
13.11.2023 00:48 4,8 C 4,4 C 1,7 C 96 % 1008,7 hPa 0,0 l/m 0 min 0 min 0 W/m 6,4 km/h (2 Bft) 100,00 %
13.11.2023 00:50 4,8 C 4,4 C 1,7 C 96 % 1008,8 hPa 0,0 l/m 0 min 0 min 0 W/m 6,4 km/h (2 Bft) 100,00 %
13.11.2023 00:52 4,8 C 4,4 C 1,7 C 96 % 1008,7 hPa 0,0 l/m 0 min 0 min 0 W/m 6,4 km/h (2 Bft) 100,00 %
13.11.2023 00:54 4,8 C 4,4 C 1,7 C 96 % 1008,7 hPa 0,0 l/m 0 min 0 min 0 W/m 3,2 km/h (1 Bft) 100,00 %
13.11.2023 00:56 4,9 C 4,4 C 1,7 C 97 % 1008,7 hPa 0,0 l/m 0 min 0 min 0 W/m 3,2 km/h (1 Bft) 98,00 %
13.11.2023 00:58 4,9 C 4,4 C 1,7 C 97 % 1008,6 hPa 0,0 l/m 0 min 0 min 0 W/m 16,1 km/h (3 Bft) 97,37 %
13.11.2023 01:00 4,9 C 4,4 C 1,7 C 97 % 1008,6 hPa 0,0 l/m 0 min 0 min 0 W/m 6,4 km/h (2 Bft) 97,87 %
13.11.2023 01:02 4,9 C 4,4 C 1,7 C 97 % 1008,5 hPa 0,0 l/m 0 min 0 min 0 W/m 3,2 km/h (1 Bft) 100,00 %
13.11.2023 01:04 4,9 C 4,4 C 2,2 C 97 % 1008,5 hPa 0,0 l/m 0 min 0 min 0 W/m 3,2 km/h (1 Bft) 100,00 %
13.11.2023 01:08 5,0 C 4,4 C 2,2 C 97 % 1008,6 hPa 0,0 l/m 0 min 0 min 0 W/m 6,4 km/h (2 Bft) 99,01 %
13.11.2023 01:09 5,0 C 4,4 C 2,2 C 97 % 1008,6 hPa 0,0 l/m 0 min 0 min 0 W/m 3,2 km/h (1 Bft) 100,00 %
13.11.2023 01:10 5,0 C 4,4 C 2,2 C 97 % 1008,6 hPa 0,0 l/m 0 min 0 min 0 W/m 6,4 km/h (2 Bft) 100,00 %
13.11.2023 01:14 5,1 C 4,4 C 2,2 C 97 % 1008,6 hPa 0,0 l/m 0 min 0 min 0 W/m 6,4 km/h (2 Bft) 100,00 %
13.11.2023 01:16 5,1 C 4,4 C 2,2 C 97 % 1008,5 hPa 0,0 l/m 0 min 0 min 0 W/m 6,4 km/h (2 Bft) 97,87 %
13.11.2023 01:18 5,1 C 4,4 C 2,2 C 97 % 1008,5 hPa 0,0 l/m 0 min 0 min 0 W/m 6,4 km/h (2 Bft) 97,83 %
13.11.2023 01:20 5,1 C 4,4 C 2,2 C 97 % 1008,6 hPa 0,0 l/m 0 min 0 min 0 W/m 6,4 km/h (2 Bft) 97,87 %
13.11.2023 01:22 5,1 C 4,4 C 2,2 C 97 % 1008,6 hPa 0,0 l/m 0 min 0 min 0 W/m 6,4 km/h (2 Bft) 97,87 %
13.11.2023 01:24 5,1 C 4,4 C 2,2 C 97 % 1008,6 hPa 0,0 l/m 0 min 0 min 0 W/m 3,2 km/h (1 Bft) 97,87 %
13.11.2023 01:26 5,1 C 4,4 C 2,2 C 97 % 1008,5 hPa 0,0 l/m 0 min 0 min 0 W/m 6,4 km/h (2 Bft) 95,74 %
13.11.2023 01:28 5,1 C 4,4 C 2,2 C 97 % 1008,5 hPa 0,0 l/m 0 min 0 min 0 W/m 6,4 km/h (2 Bft) 97,87 %
13.11.2023 01:30 5,1 C 4,4 C 2,2 C 97 % 1008,4 hPa 0,0 l/m 0 min 0 min 0 W/m 3,2 km/h (1 Bft) 97,87 %
13.11.2023 01:32 5,1 C 4,4 C 2,2 C 97 % 1008,3 hPa 0,0 l/m 0 min 0 min 0 W/m 9,7 km/h (2 Bft) 97,83 %
13.11.2023 01:34 5,1 C 4,4 C 2,2 C 97 % 1008,3 hPa 0,0 l/m 0 min 0 min 0 W/m 6,4 km/h (2 Bft) 95,74 %
13.11.2023 01:36 5,2 C 4,4 C 2,2 C 97 % 1008,2 hPa 0,0 l/m 0 min 0 min 0 W/m 3,2 km/h (1 Bft) 97,87 %
13.11.2023 01:38 5,1 C 4,4 C 2,2 C 97 % 1008,3 hPa 0,0 l/m 0 min 0 min 0 W/m 3,2 km/h (1 Bft) 93,62 %
13.11.2023 01:40 5,1 C 4,4 C 2,2 C 97 % 1008,4 hPa 0,0 l/m 0 min 0 min 0 W/m 6,4 km/h (2 Bft) 97,87 %
13.11.2023 01:42 5,2 C 4,4 C 2,2 C 97 % 1008,4 hPa 0,0 l/m 0 min 0 min 0 W/m 3,2 km/h (1 Bft) 95,74 %
13.11.2023 01:44 5,2 C 4,4 C 2,2 C 97 % 1008,4 hPa 0,0 l/m 0 min 0 min 0 W/m 3,2 km/h (1 Bft) 95,74 %
13.11.2023 01:46 5,2 C 4,4 C 2,2 C 97 % 1008,4 hPa 0,0 l/m 0 min 0 min 0 W/m 3,2 km/h (1 Bft) 95,74 %
13.11.2023 01:48 5,2 C 4,4 C 2,2 C 97 % 1008,4 hPa 0,0 l/m 0 min 0 min 0 W/m 3,2 km/h (1 Bft) 95,65 %
13.11.2023 01:50 5,2 C 5,0 C 2,2 C 97 % 1008,3 hPa 0,0 l/m 0 min 0 min 0 W/m 3,2 km/h (1 Bft) 93,62 %
13.11.2023 01:52 5,2 C 5,0 C 2,2 C 97 % 1008,3 hPa 0,0 l/m 0 min 0 min 0 W/m 3,2 km/h (1 Bft) 97,87 %
13.11.2023 01:54 5,2 C 5,0 C 2,2 C 97 % 1008,2 hPa 0,0 l/m 0 min 0 min 0 W/m 3,2 km/h (1 Bft) 95,74 %
13.11.2023 01:56 5,2 C 5,0 C 2,2 C 97 % 1008,1 hPa 0,0 l/m 0 min 0 min 0 W/m 3,2 km/h (1 Bft) 95,74 %
13.11.2023 02:02 5,3 C 5,0 C 2,2 C 97 % 1008,1 hPa 0,0 l/m 0 min 0 min 0 W/m 3,2 km/h (1 Bft) 97,37 %
13.11.2023 02:04 5,3 C 5,0 C 2,2 C 97 % 1008,2 hPa 0,0 l/m 0 min 0 min 0 W/m 6,4 km/h (2 Bft) 97,87 %
13.11.2023 02:06 5,3 C 5,0 C 2,2 C 97 % 1008,1 hPa 0,0 l/m 0 min 0 min 0 W/m 3,2 km/h (1 Bft) 91,49 %
13.11.2023 02:08 5,3 C 4,4 C 2,2 C 97 % 1008,1 hPa 0,0 l/m 0 min 0 min 0 W/m 0,0 km/h (0 Bft) 95,74 %
13.11.2023 02:10 5,3 C 4,4 C 2,2 C 97 % 1008,1 hPa 0,0 l/m 0 min 0 min 0 W/m 0,0 km/h (0 Bft) 95,74 %
13.11.2023 02:15 5,3 C 5,0 C 2,2 C 97 % 1008,1 hPa 0,0 l/m 0 min 0 min 0 W/m 0,0 km/h (0 Bft) 97,06 %
13.11.2023 02:16 5,3 C 5,0 C 2,2 C 97 % 1008,1 hPa 0,0 l/m 0 min 0 min 0 W/m 0,0 km/h (0 Bft) 100,00 %
13.11.2023 02:18 5,3 C 5,0 C 2,2 C 97 % 1008,1 hPa 0,0 l/m 0 min 0 min 0 W/m 0,0 km/h (0 Bft) 100,00 %
13.11.2023 02:20 5,3 C 5,0 C 2,2 C 97 % 1008,0 hPa 0,0 l/m 0 min 0 min 0 W/m 0,0 km/h (0 Bft) 100,00 %
13.11.2023 02:22 5,3 C 5,0 C 2,2 C 97 % 1008,0 hPa 0,0 l/m 0 min 0 min 0 W/m 0,0 km/h (0 Bft) 100,00 %
13.11.2023 02:24 5,3 C 5,0 C 2,2 C 97 % 1008,0 hPa 0,0 l/m 0 min 0 min 0 W/m 0,0 km/h (0 Bft) 100,00 %
13.11.2023 02:26 5,3 C 5,0 C 2,2 C 97 % 1008,0 hPa 0,0 l/m 0 min 0 min 0 W/m 0,0 km/h (0 Bft) 100,00 %
13.11.2023 02:28 5,3 C 5,0 C 2,2 C 97 % 1007,9 hPa 0,0 l/m 0 min 0 min 0 W/m 0,0 km/h (0 Bft) 100,00 %
13.11.2023 02:30 5,3 C 5,0 C 2,2 C 97 % 1007,9 hPa 0,0 l/m 0 min 0 min 0 W/m 0,0 km/h (0 Bft) 100,00 %
13.11.2023 02:32 5,3 C 5,0 C 2,2 C 97 % 1007,9 hPa 0,0 l/m 0 min 0 min 0 W/m 0,0 km/h (0 Bft) 100,00 %
13.11.2023 02:34 5,3 C 5,0 C 2,2 C 97 % 1007,9 hPa 0,0 l/m 0 min 0 min 0 W/m 0,0 km/h (0 Bft) 100,00 %
13.11.2023 02:36 5,3 C 5,0 C 2,2 C 97 % 1007,9 hPa 0,0 l/m 0 min 0 min 0 W/m 3,2 km/h (1 Bft) 100,00 %
13.11.2023 02:38 5,4 C 5,0 C 2,2 C 97 % 1007,8 hPa 0,0 l/m 0 min 0 min 0 W/m 12,9 km/h (3 Bft) 100,00 %
13.11.2023 02:40 5,4 C 5,0 C 2,2 C 97 % 1007,8 hPa 0,0 l/m 0 min 0 min 0 W/m 3,2 km/h (1 Bft) 100,00 %
13.11.2023 02:42 5,4 C 5,0 C 2,2 C 97 % 1007,8 hPa 0,0 l/m 0 min 0 min 0 W/m 3,2 km/h (1 Bft) 97,87 %
13.11.2023 02:44 5,4 C 5,0 C 2,2 C 97 % 1007,7 hPa 0,0 l/m 0 min 0 min 0 W/m 6,4 km/h (2 Bft) 100,00 %
13.11.2023 02:46 5,4 C 5,0 C 2,2 C 97 % 1007,6 hPa 0,0 l/m 0 min 0 min 0 W/m 6,4 km/h (2 Bft) 95,74 %
13.11.2023 02:48 5,4 C 5,0 C 2,2 C 97 % 1007,6 hPa 0,0 l/m 0 min 0 min 0 W/m 3,2 km/h (1 Bft) 97,83 %
13.11.2023 02:50 5,4 C 5,0 C 2,2 C 97 % 1007,6 hPa 0,0 l/m 0 min 0 min 0 W/m 6,4 km/h (2 Bft) 97,87 %
13.11.2023 02:52 5,4 C 5,0 C 2,2 C 97 % 1007,7 hPa 0,0 l/m 0 min 0 min 0 W/m 6,4 km/h (2 Bft) 100,00 %
13.11.2023 02:54 5,4 C 5,0 C 2,2 C 97 % 1007,6 hPa 0,0 l/m 0 min 0 min 0 W/m 16,1 km/h (3 Bft) 100,00 %
13.11.2023 02:56 5,5 C 5,0 C 2,8 C 97 % 1007,5 hPa 0,0 l/m 0 min 0 min 0 W/m 6,4 km/h (2 Bft) 100,00 %
13.11.2023 02:58 5,5 C 5,0 C 2,8 C 97 % 1007,5 hPa 0,0 l/m 0 min 0 min 0 W/m 3,2 km/h (1 Bft) 100,00 %
13.11.2023 03:00 5,5 C 5,0 C 2,8 C 97 % 1007,5 hPa 0,0 l/m 0 min 0 min 0 W/m 6,4 km/h (2 Bft) 97,83 %
13.11.2023 03:02 5,6 C 5,0 C 2,8 C 97 % 1007,4 hPa 0,0 l/m 0 min 0 min 0 W/m 3,2 km/h (1 Bft) 97,22 %
13.11.2023 03:04 5,6 C 5,0 C 2,8 C 97 % 1007,4 hPa 0,0 l/m 0 min 0 min 0 W/m 6,4 km/h (2 Bft) 98,04 %
13.11.2023 03:08 5,6 C 5,0 C 2,8 C 97 % 1007,5 hPa 0,0 l/m 0 min 0 min 0 W/m 6,4 km/h (2 Bft) 96,91 %
13.11.2023 03:09 5,6 C 5,0 C 2,8 C 97 % 1007,5 hPa 0,0 l/m 0 min 0 min 0 W/m 3,2 km/h (1 Bft) 100,00 %
13.11.2023 03:10 5,6 C 5,0 C 2,8 C 97 % 1007,5 hPa 0,0 l/m 0 min 0 min 0 W/m 6,4 km/h (2 Bft) 100,00 %
13.11.2023 03:14 5,6 C 5,0 C 2,8 C 97 % 1007,5 hPa 0,0 l/m 0 min 0 min 0 W/m 12,9 km/h (3 Bft) 98,28 %
13.11.2023 03:16 5,6 C 5,0 C 2,8 C 97 % 1007,6 hPa 0,0 l/m 0 min 0 min 0 W/m 12,9 km/h (3 Bft) 95,74 %
13.11.2023 03:18 5,6 C 5,0 C 2,8 C 97 % 1007,6 hPa 0,0 l/m 0 min 0 min 0 W/m 6,4 km/h (2 Bft) 95,74 %
13.11.2023 03:20 5,6 C 5,0 C 2,8 C 97 % 1007,5 hPa 0,0 l/m 0 min 0 min 0 W/m 6,4 km/h (2 Bft) 95,74 %
13.11.2023 03:22 5,6 C 5,0 C 2,8 C 97 % 1007,5 hPa 0,0 l/m 0 min 0 min 0 W/m 3,2 km/h (1 Bft) 97,87 %
13.11.2023 03:24 5,6 C 5,0 C 2,8 C 97 % 1007,5 hPa 0,0 l/m 0 min 0 min 0 W/m 6,4 km/h (2 Bft) 95,74 %
13.11.2023 03:26 5,6 C 5,0 C 2,8 C 97 % 1007,4 hPa 0,0 l/m 0 min 0 min 0 W/m 6,4 km/h (2 Bft) 95,74 %
13.11.2023 03:28 5,6 C 5,0 C 2,8 C 97 % 1007,4 hPa 0,0 l/m 0 min 0 min 0 W/m 3,2 km/h (1 Bft) 97,83 %
13.11.2023 03:30 5,6 C 5,0 C 2,8 C 97 % 1007,4 hPa 0,0 l/m 0 min 0 min 0 W/m 6,4 km/h (2 Bft) 97,87 %
13.11.2023 03:32 5,7 C 5,0 C 2,8 C 97 % 1007,4 hPa 0,0 l/m 0 min 0 min 0 W/m 3,2 km/h (1 Bft) 95,74 %
13.11.2023 03:34 5,7 C 5,6 C 2,8 C 97 % 1007,4 hPa 0,0 l/m 0 min 0 min 0 W/m 6,4 km/h (2 Bft) 91,49 %
13.11.2023 03:36 5,7 C 5,6 C 2,8 C 97 % 1007,4 hPa 0,0 l/m 0 min 0 min 0 W/m 12,9 km/h (3 Bft) 95,74 %
13.11.2023 03:38 5,7 C 5,6 C 2,8 C 97 % 1007,5 hPa 0,0 l/m 0 min 0 min 0 W/m 12,9 km/h (3 Bft) 93,62 %
13.11.2023 03:40 5,8 C 5,6 C 2,8 C 97 % 1007,5 hPa 0,0 l/m 0 min 0 min 0 W/m 3,2 km/h (1 Bft) 93,62 %
13.11.2023 03:42 5,8 C 5,6 C 2,8 C 97 % 1007,5 hPa 0,0 l/m 0 min 0 min 0 W/m 3,2 km/h (1 Bft) 93,62 %
13.11.2023 03:44 5,8 C 5,6 C 2,8 C 97 % 1007,4 hPa 0,0 l/m 0 min 0 min 0 W/m 6,4 km/h (2 Bft) 91,30 %
13.11.2023 03:46 5,8 C 5,6 C 2,8 C 97 % 1007,4 hPa 0,0 l/m 0 min 0 min 0 W/m 6,4 km/h (2 Bft) 89,36 %
13.11.2023 03:48 5,8 C 5,6 C 2,8 C 97 % 1007,4 hPa 0,0 l/m 0 min 0 min 0 W/m 6,4 km/h (2 Bft) 91,49 %
13.11.2023 03:50 5,8 C 5,6 C 2,8 C 97 % 1007,4 hPa 0,0 l/m 0 min 0 min 0 W/m 3,2 km/h (1 Bft) 93,62 %
13.11.2023 03:52 5,8 C 5,6 C 2,8 C 97 % 1007,5 hPa 0,0 l/m 0 min 0 min 0 W/m 12,9 km/h (3 Bft) 93,62 %
13.11.2023 03:54 5,8 C 5,6 C 2,8 C 97 % 1007,5 hPa 0,0 l/m 0 min 0 min 0 W/m 3,2 km/h (1 Bft) 92,31 %
13.11.2023 03:56 5,8 C 5,6 C 2,8 C 97 % 1007,4 hPa 0,0 l/m 0 min 0 min 0 W/m 3,2 km/h (1 Bft) 93,62 %
13.11.2023 03:58 5,8 C 5,6 C 2,8 C 97 % 1007,3 hPa 0,0 l/m 0 min 0 min 0 W/m 6,4 km/h (2 Bft) 95,74 %
13.11.2023 04:00 5,8 C 5,6 C 2,8 C 97 % 1007,4 hPa 0,0 l/m 0 min 0 min 0 W/m 6,4 km/h (2 Bft) 93,62 %
13.11.2023 04:02 5,9 C 5,6 C 2,8 C 97 % 1007,3 hPa 0,0 l/m 0 min 0 min 0 W/m 3,2 km/h (1 Bft) 95,65 %
13.11.2023 04:04 5,9 C 5,6 C 2,8 C 97 % 1007,3 hPa 0,0 l/m 0 min 0 min 0 W/m 12,9 km/h (3 Bft) 95,56 %
13.11.2023 04:08 5,9 C 5,6 C 2,8 C 97 % 1007,2 hPa 0,0 l/m 0 min 0 min 0 W/m 6,4 km/h (2 Bft) 96,04 %
13.11.2023 04:09 5,9 C 5,6 C 2,8 C 97 % 1007,2 hPa 0,0 l/m 0 min 0 min 0 W/m 6,4 km/h (2 Bft) 95,65 %
13.11.2023 04:12 5,9 C 5,6 C 2,8 C 97 % 1007,2 hPa 0,0 l/m 0 min 0 min 0 W/m 6,4 km/h (2 Bft) 97,18 %
13.11.2023 04:14 5,9 C 5,6 C 2,8 C 97 % 1007,1 hPa 0,0 l/m 0 min 0 min 0 W/m 6,4 km/h (2 Bft) 95,65 %
13.11.2023 04:16 5,9 C 5,6 C 2,8 C 97 % 1007,1 hPa 0,0 l/m 0 min 0 min 0 W/m 3,2 km/h (1 Bft) 95,74 %
13.11.2023 04:18 5,9 C 5,6 C 2,8 C 97 % 1007,1 hPa 0,0 l/m 0 min 0 min 0 W/m 9,7 km/h (2 Bft) 95,74 %
13.11.2023 04:20 5,9 C 5,6 C 2,8 C 97 % 1007,0 hPa 0,0 l/m 0 min 0 min 0 W/m 6,4 km/h (2 Bft) 97,87 %
13.11.2023 04:22 5,9 C 5,6 C 2,8 C 97 % 1007,1 hPa 0,0 l/m 0 min 0 min 0 W/m 12,9 km/h (3 Bft) 100,00 %
13.11.2023 04:24 6,0 C 5,6 C 2,8 C 97 % 1007,1 hPa 0,0 l/m 0 min 0 min 0 W/m 6,4 km/h (2 Bft) 100,00 %
13.11.2023 04:26 6,0 C 5,6 C 2,8 C 97 % 1007,2 hPa 0,0 l/m 0 min 0 min 0 W/m 6,4 km/h (2 Bft) 100,00 %
13.11.2023 04:28 6,0 C 5,6 C 2,8 C 97 % 1007,1 hPa 0,0 l/m 0 min 0 min 0 W/m 12,9 km/h (3 Bft) 100,00 %
13.11.2023 04:30 6,0 C 5,6 C 2,8 C 97 % 1007,1 hPa 0,0 l/m 0 min 0 min 0 W/m 16,1 km/h (3 Bft) 100,00 %
13.11.2023 04:32 6,0 C 5,6 C 2,8 C 97 % 1007,1 hPa 0,0 l/m 0 min 0 min 0 W/m 6,4 km/h (2 Bft) 100,00 %
13.11.2023 04:34 6,0 C 5,6 C 2,8 C 97 % 1007,2 hPa 0,0 l/m 0 min 0 min 0 W/m 12,9 km/h (3 Bft) 100,00 %
13.11.2023 04:36 6,0 C 5,6 C 2,8 C 97 % 1007,3 hPa 0,0 l/m 0 min 0 min 0 W/m 6,4 km/h (2 Bft) 97,87 %
13.11.2023 04:38 6,1 C 5,6 C 2,8 C 97 % 1007,3 hPa 0,0 l/m 0 min 0 min 0 W/m 12,9 km/h (3 Bft) 100,00 %
13.11.2023 04:40 6,1 C 5,6 C 2,8 C 97 % 1007,3 hPa 0,0 l/m 0 min 0 min 0 W/m 12,9 km/h (3 Bft) 100,00 %
13.11.2023 04:42 6,1 C 5,6 C 2,8 C 97 % 1007,3 hPa 0,0 l/m 0 min 0 min 0 W/m 6,4 km/h (2 Bft) 97,83 %
13.11.2023 04:44 6,1 C 5,6 C 2,8 C 97 % 1007,3 hPa 0,0 l/m 0 min 0 min 0 W/m 12,9 km/h (3 Bft) 100,00 %
13.11.2023 04:46 6,1 C 5,6 C 2,8 C 97 % 1007,3 hPa 0,0 l/m 0 min 0 min 0 W/m 16,1 km/h (3 Bft) 100,00 %
13.11.2023 04:48 6,1 C 5,6 C 2,8 C 97 % 1007,3 hPa 0,0 l/m 0 min 0 min 0 W/m 6,4 km/h (2 Bft) 97,87 %
13.11.2023 04:50 6,1 C 5,6 C 2,8 C 97 % 1007,3 hPa 0,0 l/m 0 min 0 min 0 W/m 6,4 km/h (2 Bft) 100,00 %
13.11.2023 04:52 6,1 C 5,6 C 2,8 C 97 % 1007,2 hPa 0,0 l/m 0 min 0 min 0 W/m 3,2 km/h (1 Bft) 100,00 %
13.11.2023 04:54 6,1 C 5,6 C 2,8 C 97 % 1007,2 hPa 0,0 l/m 0 min 0 min 0 W/m 3,2 km/h (1 Bft) 97,87 %
13.11.2023 04:56 6,1 C 5,6 C 2,8 C 97 % 1007,2 hPa 0,0 l/m 0 min 0 min 0 W/m 3,2 km/h (1 Bft) 97,83 %
13.11.2023 04:58 6,1 C 5,6 C 2,8 C 97 % 1007,2 hPa 0,0 l/m 0 min 2 min 0 W/m 6,4 km/h (2 Bft) 100,00 %
13.11.2023 05:00 6,1 C 5,6 C 2,8 C 97 % 1007,2 hPa 0,0 l/m 0 min 0 min 0 W/m 3,2 km/h (1 Bft) 100,00 %
13.11.2023 05:02 6,1 C 5,6 C 2,8 C 97 % 1007,2 hPa 0,0 l/m 0 min 0 min 0 W/m 3,2 km/h (1 Bft) 97,87 %
13.11.2023 05:04 6,1 C 5,6 C 2,8 C 97 % 1007,3 hPa 0,0 l/m 0 min 0 min 0 W/m 6,4 km/h (2 Bft) 100,00 %
13.11.2023 05:08 6,1 C 5,6 C 2,8 C 97 % 1007,4 hPa 0,2 l/m 0 min 0 min 0 W/m 6,4 km/h (2 Bft) 100,00 %
13.11.2023 05:10 6,1 C 5,6 C 2,8 C 97 % 1007,4 hPa 0,0 l/m 0 min 0 min 0 W/m 3,2 km/h (1 Bft) 51,16 %
13.11.2023 05:12 6,1 C 5,6 C 2,8 C 97 % 1007,3 hPa 0,0 l/m 0 min 0 min 0 W/m 6,4 km/h (2 Bft) 100,00 %
13.11.2023 05:14 6,1 C 5,6 C 2,8 C 97 % 1007,3 hPa 0,0 l/m 0 min 2 min 0 W/m 3,2 km/h (1 Bft) 100,00 %
13.11.2023 05:16 6,1 C 5,6 C 2,8 C 97 % 1007,3 hPa 0,0 l/m 0 min 0 min 0 W/m 3,2 km/h (1 Bft) 100,00 %
13.11.2023 05:18 6,1 C 5,6 C 2,8 C 97 % 1007,3 hPa 0,0 l/m 0 min 2 min 0 W/m 3,2 km/h (1 Bft) 100,00 %
13.11.2023 05:20 6,2 C 5,6 C 2,8 C 97 % 1007,3 hPa 0,0 l/m 0 min 0 min 0 W/m 6,4 km/h (2 Bft) 100,00 %
13.11.2023 05:22 6,2 C 5,6 C 2,8 C 98 % 1007,3 hPa 0,0 l/m 0 min 0 min 0 W/m 3,2 km/h (1 Bft) 100,00 %
13.11.2023 05:24 6,2 C 5,6 C 2,8 C 98 % 1007,3 hPa 0,0 l/m 0 min 0 min 0 W/m 6,4 km/h (2 Bft) 97,87 %
13.11.2023 05:26 6,2 C 5,6 C 2,8 C 98 % 1007,3 hPa 0,0 l/m 0 min 0 min 0 W/m 12,9 km/h (3 Bft) 97,87 %
13.11.2023 05:28 6,2 C 5,6 C 2,8 C 98 % 1007,3 hPa 0,0 l/m 0 min 0 min 0 W/m 3,2 km/h (1 Bft) 97,83 %
13.11.2023 05:30 6,2 C 5,6 C 2,8 C 98 % 1007,2 hPa 0,0 l/m 0 min 0 min 0 W/m 3,2 km/h (1 Bft) 97,87 %
13.11.2023 05:32 6,2 C 5,6 C 2,8 C 98 % 1007,1 hPa 0,0 l/m 0 min 0 min 0 W/m 12,9 km/h (3 Bft) 95,74 %
13.11.2023 05:34 6,2 C 5,6 C 2,8 C 98 % 1007,1 hPa 0,0 l/m 0 min 0 min 0 W/m 16,1 km/h (3 Bft) 97,87 %
13.11.2023 05:36 6,2 C 5,6 C 2,8 C 98 % 1007,2 hPa 0,0 l/m 0 min 0 min 0 W/m 6,4 km/h (2 Bft) 95,74 %
13.11.2023 05:38 6,2 C 5,6 C 2,8 C 98 % 1007,3 hPa 0,0 l/m 0 min 0 min 0 W/m 3,2 km/h (1 Bft) 100,00 %
13.11.2023 05:40 6,2 C 5,6 C 2,8 C 98 % 1007,3 hPa 0,0 l/m 0 min 0 min 0 W/m 3,2 km/h (1 Bft) 97,87 %
13.11.2023 05:42 6,2 C 5,6 C 2,8 C 98 % 1007,2 hPa 0,0 l/m 0 min 0 min 0 W/m 3,2 km/h (1 Bft) 100,00 %
13.11.2023 05:44 6,2 C 5,6 C 2,8 C 98 % 1007,2 hPa 0,0 l/m 0 min 0 min 0 W/m 6,4 km/h (2 Bft) 97,83 %
13.11.2023 05:46 6,3 C 5,6 C 2,8 C 98 % 1007,2 hPa 0,0 l/m 0 min 0 min 0 W/m 12,9 km/h (3 Bft) 97,87 %
13.11.2023 05:48 6,3 C 5,6 C 2,8 C 98 % 1007,1 hPa 0,0 l/m 0 min 0 min 0 W/m 16,1 km/h (3 Bft) 97,87 %
13.11.2023 05:50 6,3 C 5,6 C 3,3 C 98 % 1007,1 hPa 0,0 l/m 0 min 0 min 0 W/m 12,9 km/h (3 Bft) 97,87 %
13.11.2023 05:52 6,3 C 5,6 C 3,3 C 98 % 1007,1 hPa 0,0 l/m 0 min 0 min 0 W/m 16,1 km/h (3 Bft) 93,62 %
13.11.2023 05:54 6,3 C 5,6 C 3,3 C 98 % 1007,2 hPa 0,0 l/m 0 min 0 min 0 W/m 12,9 km/h (3 Bft) 96,23 %
13.11.2023 05:56 6,3 C 5,6 C 3,3 C 98 % 1007,1 hPa 0,0 l/m 0 min 0 min 0 W/m 12,9 km/h (3 Bft) 100,00 %
13.11.2023 05:58 6,4 C 5,6 C 3,3 C 98 % 1007,0 hPa 0,0 l/m 0 min 0 min 0 W/m 6,4 km/h (2 Bft) 100,00 %
13.11.2023 06:00 6,4 C 5,6 C 3,3 C 98 % 1006,9 hPa 0,0 l/m 0 min 0 min 0 W/m 12,9 km/h (3 Bft) 97,87 %
13.11.2023 06:02 6,4 C 5,6 C 3,3 C 98 % 1006,9 hPa 0,0 l/m 0 min 0 min 0 W/m 9,7 km/h (2 Bft) 97,87 %
13.11.2023 06:04 6,4 C 5,6 C 3,3 C 98 % 1006,8 hPa 0,0 l/m 0 min 0 min 0 W/m 0,0 km/h (0 Bft) 97,22 %
13.11.2023 06:08 6,4 C 5,6 C 3,3 C 98 % 1006,7 hPa 0,0 l/m 0 min 0 min 0 W/m 12,9 km/h (3 Bft) 97,14 %
13.11.2023 06:10 6,4 C 5,6 C 3,3 C 98 % 1006,6 hPa 0,0 l/m 0 min 0 min 0 W/m 3,2 km/h (1 Bft) 95,74 %
13.11.2023 06:12 6,5 C 5,6 C 3,3 C 98 % 1006,6 hPa 0,0 l/m 0 min 0 min 0 W/m 6,4 km/h (2 Bft) 93,62 %
13.11.2023 06:16 6,5 C 5,6 C 3,3 C 98 % 1006,6 hPa 0,0 l/m 0 min 0 min 0 W/m 6,4 km/h (2 Bft) 95,12 %
13.11.2023 06:18 6,5 C 5,6 C 3,3 C 98 % 1006,5 hPa 0,0 l/m 0 min 0 min 0 W/m 6,4 km/h (2 Bft) 93,62 %
13.11.2023 06:20 6,5 C 5,6 C 3,3 C 98 % 1006,5 hPa 0,0 l/m 0 min 0 min 0 W/m 6,4 km/h (2 Bft) 95,74 %
13.11.2023 06:22 6,5 C 5,6 C 3,3 C 98 % 1006,5 hPa 0,0 l/m 0 min 0 min 0 W/m 12,9 km/h (3 Bft) 95,74 %
13.11.2023 06:24 6,5 C 6,1 C 3,3 C 98 % 1006,5 hPa 0,0 l/m 0 min 0 min 0 W/m 12,9 km/h (3 Bft) 95,74 %
13.11.2023 06:26 6,6 C 6,1 C 3,3 C 98 % 1006,5 hPa 0,0 l/m 0 min 0 min 0 W/m 6,4 km/h (2 Bft) 95,74 %
13.11.2023 06:28 6,6 C 6,1 C 3,3 C 98 % 1006,4 hPa 0,0 l/m 0 min 0 min 0 W/m 12,9 km/h (3 Bft) 95,65 %
13.11.2023 06:30 6,6 C 6,1 C 3,3 C 98 % 1006,5 hPa 0,0 l/m 0 min 0 min 0 W/m 6,4 km/h (2 Bft) 95,74 %
13.11.2023 06:32 6,6 C 6,1 C 3,3 C 98 % 1006,3 hPa 0,0 l/m 0 min 0 min 0 W/m 6,4 km/h (2 Bft) 97,87 %
13.11.2023 06:34 6,6 C 6,1 C 3,3 C 98 % 1006,2 hPa 0,0 l/m 0 min 0 min 0 W/m 6,4 km/h (2 Bft) 95,74 %
13.11.2023 06:36 6,6 C 6,1 C 3,3 C 98 % 1006,3 hPa 0,0 l/m 0 min 0 min 0 W/m 3,2 km/h (1 Bft) 93,62 %
13.11.2023 06:38 6,6 C 6,1 C 3,3 C 98 % 1006,4 hPa 0,0 l/m 0 min 0 min 0 W/m 6,4 km/h (2 Bft) 93,62 %
13.11.2023 06:40 6,7 C 6,1 C 3,3 C 98 % 1006,4 hPa 0,0 l/m 0 min 0 min 0 W/m 6,4 km/h (2 Bft) 95,65 %
13.11.2023 06:42 6,7 C 6,1 C 3,3 C 98 % 1006,4 hPa 0,0 l/m 0 min 0 min 0 W/m 6,4 km/h (2 Bft) 95,74 %
13.11.2023 06:44 6,7 C 6,1 C 3,3 C 98 % 1006,4 hPa 0,0 l/m 0 min 0 min 0 W/m 3,2 km/h (1 Bft) 95,74 %
13.11.2023 06:46 6,7 C 6,1 C 3,3 C 98 % 1006,3 hPa 0,0 l/m 0 min 0 min 0 W/m 6,4 km/h (2 Bft) 91,49 %
13.11.2023 06:48 6,7 C 6,1 C 3,3 C 98 % 1006,2 hPa 0,0 l/m 0 min 0 min 0 W/m 16,1 km/h (3 Bft) 95,74 %
13.11.2023 06:54 6,8 C 6,1 C 3,3 C 98 % 1006,2 hPa 0,0 l/m 0 min 0 min 0 W/m 6,4 km/h (2 Bft) 95,45 %
13.11.2023 06:55 6,8 C 6,1 C 3,3 C 98 % 1006,2 hPa 0,0 l/m 0 min 0 min 0 W/m 6,4 km/h (2 Bft) 95,83 %
13.11.2023 06:56 6,8 C 6,1 C 3,3 C 98 % 1006,2 hPa 0,0 l/m 0 min 0 min 0 W/m 0,0 km/h (0 Bft) 100,00 %
13.11.2023 06:58 6,8 C 6,1 C 3,3 C 98 % 1006,2 hPa 0,0 l/m 0 min 0 min 0 W/m 12,9 km/h (3 Bft) 100,00 %
13.11.2023 07:03 6,8 C 6,1 C 3,3 C 98 % 1006,2 hPa 0,0 l/m 0 min 0 min 0 W/m 12,9 km/h (3 Bft) 96,49 %
13.11.2023 07:04 6,9 C 6,1 C 3,3 C 98 % 1006,2 hPa 0,0 l/m 0 min 0 min 0 W/m 3,2 km/h (1 Bft) 100,00 %
13.11.2023 07:06 6,9 C 6,1 C 3,9 C 98 % 1006,2 hPa 0,0 l/m 0 min 0 min 0 W/m 6,4 km/h (2 Bft) 100,00 %
13.11.2023 07:08 6,9 C 6,1 C 3,9 C 98 % 1006,2 hPa 0,0 l/m 0 min 0 min 0 W/m 3,2 km/h (1 Bft) 100,00 %
13.11.2023 07:10 6,9 C 6,1 C 3,9 C 98 % 1006,3 hPa 0,0 l/m 0 min 0 min 0 W/m 3,2 km/h (1 Bft) 100,00 %
13.11.2023 07:12 6,9 C 6,1 C 3,9 C 98 % 1006,2 hPa 0,0 l/m 0 min 0 min 0 W/m 3,2 km/h (1 Bft) 100,00 %
13.11.2023 07:14 7,0 C 6,1 C 3,9 C 98 % 1006,2 hPa 0,0 l/m 0 min 0 min 0 W/m 3,2 km/h (1 Bft) 100,00 %
13.11.2023 07:16 7,0 C 6,7 C 3,9 C 99 % 1006,1 hPa 0,0 l/m 0 min 0 min 0 W/m 6,4 km/h (2 Bft) 100,00 %
13.11.2023 07:18 7,1 C 6,7 C 3,9 C 99 % 1006,2 hPa 0,0 l/m 0 min 0 min 0 W/m 6,4 km/h (2 Bft) 97,87 %
13.11.2023 07:20 7,1 C 6,7 C 3,9 C 99 % 1006,2 hPa 0,0 l/m 0 min 0 min 0 W/m 6,4 km/h (2 Bft) 97,83 %
13.11.2023 07:22 7,1 C 6,7 C 3,9 C 99 % 1006,2 hPa 0,0 l/m 0 min 0 min 0 W/m 3,2 km/h (1 Bft) 95,74 %
13.11.2023 07:24 7,1 C 6,7 C 3,9 C 99 % 1006,2 hPa 0,0 l/m 0 min 0 min 0 W/m 3,2 km/h (1 Bft) 97,87 %
13.11.2023 07:26 7,1 C 6,7 C 3,9 C 99 % 1006,2 hPa 0,0 l/m 0 min 0 min 0 W/m 3,2 km/h (1 Bft) 97,87 %
13.11.2023 07:28 7,1 C 6,7 C 3,9 C 99 % 1006,1 hPa 0,0 l/m 0 min 2 min 0 W/m 3,2 km/h (1 Bft) 97,87 %
13.11.2023 07:30 7,1 C 6,7 C 3,9 C 99 % 1006,2 hPa 0,0 l/m 0 min 2 min 0 W/m 3,2 km/h (1 Bft) 97,87 %
13.11.2023 07:32 7,1 C 6,7 C 3,9 C 99 % 1006,1 hPa 0,2 l/m 0 min 2 min 0 W/m 6,4 km/h (2 Bft) 95,65 %
13.11.2023 07:34 7,2 C 6,7 C 3,9 C 99 % 1006,1 hPa 0,0 l/m 0 min 2 min 0 W/m 3,2 km/h (1 Bft) 97,87 %
13.11.2023 07:36 7,2 C 6,7 C 3,9 C 99 % 1006,0 hPa 0,0 l/m 0 min 2 min 0 W/m 3,2 km/h (1 Bft) 97,87 %
13.11.2023 07:38 7,2 C 6,7 C 3,9 C 99 % 1006,0 hPa 0,0 l/m 0 min 2 min 0 W/m 3,2 km/h (1 Bft) 95,74 %
13.11.2023 07:40 7,2 C 6,7 C 3,9 C 99 % 1006,0 hPa 0,0 l/m 0 min 2 min 0 W/m 3,2 km/h (1 Bft) 97,87 %
13.11.2023 07:42 7,2 C 6,7 C 3,9 C 99 % 1006,0 hPa 0,0 l/m 0 min 2 min 0 W/m 0,0 km/h (0 Bft) 97,87 %
13.11.2023 07:44 7,3 C 6,7 C 3,9 C 99 % 1006,0 hPa 0,0 l/m 0 min 2 min 0 W/m 6,4 km/h (2 Bft) 97,87 %
13.11.2023 07:46 7,3 C 6,7 C 3,9 C 99 % 1006,0 hPa 0,0 l/m 0 min 2 min 0 W/m 3,2 km/h (1 Bft) 97,83 %
13.11.2023 07:48 7,3 C 6,7 C 3,9 C 99 % 1006,0 hPa 0,2 l/m 0 min 2 min 0 W/m 12,9 km/h (3 Bft) 95,74 %
13.11.2023 07:50 7,3 C 6,7 C 4,4 C 99 % 1006,0 hPa 0,0 l/m 0 min 2 min 0 W/m 6,4 km/h (2 Bft) 97,87 %
13.11.2023 07:52 7,3 C 6,7 C 4,4 C 99 % 1006,0 hPa 0,0 l/m 0 min 2 min 0 W/m 6,4 km/h (2 Bft) 100,00 %
13.11.2023 07:54 7,3 C 6,7 C 4,4 C 99 % 1005,9 hPa 0,0 l/m 0 min 2 min 0 W/m 3,2 km/h (1 Bft) 97,87 %
13.11.2023 07:56 7,3 C 6,7 C 4,4 C 99 % 1005,9 hPa 0,2 l/m 0 min 2 min 0 W/m 3,2 km/h (1 Bft) 100,00 %
13.11.2023 07:58 7,4 C 6,7 C 4,4 C 99 % 1005,9 hPa 0,0 l/m 0 min 2 min 0 W/m 3,2 km/h (1 Bft) 100,00 %
13.11.2023 08:00 7,4 C 6,7 C 4,4 C 99 % 1006,0 hPa 0,0 l/m 0 min 2 min 0 W/m 0,0 km/h (0 Bft) 97,83 %
13.11.2023 08:02 7,4 C 6,7 C 4,4 C 99 % 1006,0 hPa 0,0 l/m 0 min 2 min 0 W/m 3,2 km/h (1 Bft) 100,00 %
13.11.2023 08:04 7,4 C 6,7 C 4,4 C 99 % 1006,0 hPa 0,2 l/m 0 min 2 min 0 W/m 12,9 km/h (3 Bft) 100,00 %
13.11.2023 08:08 7,5 C 6,7 C 4,4 C 99 % 1006,0 hPa 0,0 l/m 0 min 4 min 0 W/m 6,4 km/h (2 Bft) 100,00 %
13.11.2023 08:09 7,5 C 6,7 C 4,4 C 99 % 1006,1 hPa 0,0 l/m 0 min 1 min 0 W/m 6,4 km/h (2 Bft) 100,00 %
13.11.2023 08:12 7,5 C 6,7 C 4,4 C 99 % 1006,1 hPa 0,0 l/m 0 min 3 min 1 W/m 12,9 km/h (3 Bft) 98,59 %
13.11.2023 08:14 7,6 C 6,7 C 4,4 C 99 % 1006,2 hPa 0,0 l/m 0 min 2 min 3 W/m 6,4 km/h (2 Bft) 100,00 %
13.11.2023 08:16 7,6 C 6,7 C 4,4 C 99 % 1006,2 hPa 0,2 l/m 0 min 2 min 5 W/m 3,2 km/h (1 Bft) 95,74 %
13.11.2023 08:18 7,6 C 6,7 C 4,4 C 99 % 1006,2 hPa 0,0 l/m 0 min 2 min 5 W/m 12,9 km/h (3 Bft) 100,00 %
13.11.2023 08:20 7,6 C 6,7 C 4,4 C 99 % 1006,1 hPa 0,2 l/m 0 min 2 min 5 W/m 3,2 km/h (1 Bft) 100,00 %
13.11.2023 08:22 7,6 C 6,7 C 4,4 C 99 % 1006,1 hPa 0,0 l/m 0 min 2 min 6 W/m 6,4 km/h (2 Bft) 100,00 %
13.11.2023 08:24 7,6 C 6,7 C 4,4 C 99 % 1006,1 hPa 0,0 l/m 0 min 2 min 7 W/m 0,0 km/h (0 Bft) 100,00 %
13.11.2023 08:26 7,6 C 7,2 C 4,4 C 99 % 1006,1 hPa 0,0 l/m 0 min 2 min 7 W/m 3,2 km/h (1 Bft) 100,00 %
13.11.2023 08:28 7,6 C 7,2 C 4,4 C 99 % 1006,1 hPa 0,0 l/m 0 min 2 min 7 W/m 6,4 km/h (2 Bft) 97,83 %
13.11.2023 08:30 7,6 C 7,2 C 4,4 C 99 % 1006,1 hPa 0,0 l/m 0 min 2 min 7 W/m 3,2 km/h (1 Bft) 100,00 %
13.11.2023 08:32 7,7 C 7,2 C 4,4 C 99 % 1006,0 hPa 0,2 l/m 0 min 2 min 7 W/m 3,2 km/h (1 Bft) 100,00 %
13.11.2023 08:34 7,7 C 7,2 C 4,4 C 99 % 1006,0 hPa 0,0 l/m 0 min 2 min 7 W/m 3,2 km/h (1 Bft) 100,00 %
13.11.2023 08:36 7,7 C 7,2 C 4,4 C 99 % 1005,9 hPa 0,0 l/m 0 min 2 min 9 W/m 3,2 km/h (1 Bft) 100,00 %
13.11.2023 08:38 7,7 C 7,2 C 4,4 C 99 % 1005,9 hPa 0,0 l/m 0 min 2 min 9 W/m 3,2 km/h (1 Bft) 97,87 %
13.11.2023 08:40 7,8 C 7,2 C 4,4 C 99 % 1005,8 hPa 0,2 l/m 0 min 2 min 11 W/m 6,4 km/h (2 Bft) 100,00 %
13.11.2023 08:42 7,8 C 7,2 C 4,4 C 99 % 1005,8 hPa 0,0 l/m 0 min 2 min 11 W/m 3,2 km/h (1 Bft) 100,00 %
13.11.2023 08:44 7,8 C 7,2 C 4,4 C 99 % 1005,9 hPa 0,0 l/m 0 min 2 min 11 W/m 3,2 km/h (1 Bft) 97,83 %
13.11.2023 08:46 7,8 C 7,2 C 4,4 C 99 % 1005,9 hPa 0,0 l/m 0 min 2 min 11 W/m 6,4 km/h (2 Bft) 97,87 %
13.11.2023 08:48 7,9 C 7,2 C 4,4 C 99 % 1005,9 hPa 0,0 l/m 0 min 2 min 11 W/m 6,4 km/h (2 Bft) 97,87 %
13.11.2023 08:50 8,0 C 7,2 C 5,0 C 99 % 1005,9 hPa 0,0 l/m 0 min 2 min 9 W/m 0,0 km/h (0 Bft) 95,74 %
13.11.2023 08:52 8,1 C 7,8 C 5,0 C 99 % 1005,9 hPa 0,0 l/m 0 min 2 min 9 W/m 6,4 km/h (2 Bft) 95,74 %
13.11.2023 08:54 8,1 C 7,8 C 5,0 C 99 % 1005,9 hPa 0,2 l/m 0 min 2 min 11 W/m 3,2 km/h (1 Bft) 100,00 %
13.11.2023 08:56 8,2 C 7,8 C 5,0 C 99 % 1005,9 hPa 0,0 l/m 0 min 2 min 11 W/m 0,0 km/h (0 Bft) 95,74 %
13.11.2023 08:58 8,2 C 7,8 C 5,0 C 99 % 1005,8 hPa 0,0 l/m 0 min 2 min 12 W/m 0,0 km/h (0 Bft) 95,35 %
13.11.2023 09:00 8,2 C 7,8 C 5,0 C 99 % 1005,7 hPa 0,0 l/m 0 min 2 min 14 W/m 0,0 km/h (0 Bft) 95,74 %
13.11.2023 09:02 8,2 C 7,8 C 5,0 C 99 % 1005,7 hPa 0,0 l/m 0 min 2 min 16 W/m 3,2 km/h (1 Bft) 57,45 %
13.11.2023 09:05 8,3 C 7,8 C 5,0 C 99 % 1005,6 hPa 0,2 l/m 0 min 3 min 14 W/m 3,2 km/h (1 Bft) 75,44 %
13.11.2023 09:10 8,4 C 7,8 C 5,0 C 99 % 1005,5 hPa 0,0 l/m 0 min 5 min 9 W/m 6,4 km/h (2 Bft) 97,37 %
13.11.2023 09:15 8,6 C 8,3 C 5,6 C 99 % 1005,3 hPa 0,2 l/m 0 min 5 min 9 W/m 3,2 km/h (1 Bft) 95,61 %
13.11.2023 09:20 8,8 C 8,3 C 5,6 C 99 % 1005,4 hPa 0,2 l/m 0 min 5 min 12 W/m 3,2 km/h (1 Bft) 93,86 %
13.11.2023 09:25 8,9 C 8,3 C 5,6 C 99 % 1005,2 hPa 0,0 l/m 0 min 5 min 12 W/m 9,7 km/h (2 Bft) 96,49 %
13.11.2023 09:30 9,1 C 8,3 C 5,6 C 99 % 1005,1 hPa 0,2 l/m 0 min 5 min 11 W/m 12,9 km/h (3 Bft) 98,25 %
13.11.2023 09:35 9,1 C 8,3 C 5,6 C 99 % 1005,0 hPa 0,2 l/m 0 min 5 min 12 W/m 3,2 km/h (1 Bft) 97,37 %
13.11.2023 09:40 9,2 C 8,3 C 5,6 C 99 % 1004,9 hPa 0,2 l/m 0 min 5 min 12 W/m 3,2 km/h (1 Bft) 98,25 %
13.11.2023 09:45 9,2 C 8,3 C 5,6 C 99 % 1004,9 hPa 0,2 l/m 0 min 5 min 11 W/m 6,4 km/h (2 Bft) 96,49 %
13.11.2023 09:50 9,2 C 8,3 C 6,1 C 100 % 1005,0 hPa 0,0 l/m 0 min 5 min 9 W/m 9,7 km/h (2 Bft) 100,00 %
13.11.2023 09:56 9,3 C 8,3 C 6,1 C 100 % 1005,0 hPa 0,2 l/m 0 min 5 min 11 W/m 3,2 km/h (1 Bft) 96,91 %
13.11.2023 09:58 9,3 C 8,3 C 6,1 C 100 % 1004,9 hPa 0,0 l/m 0 min 2 min 11 W/m 6,4 km/h (2 Bft) 98,41 %
13.11.2023 10:00 9,3 C 8,3 C 6,1 C 100 % 1004,9 hPa 0,0 l/m 0 min 2 min 11 W/m 3,2 km/h (1 Bft) 100,00 %
13.11.2023 10:02 9,3 C 8,3 C 6,1 C 100 % 1004,8 hPa 0,2 l/m 0 min 2 min 10 W/m 3,2 km/h (1 Bft) 100,00 %
13.11.2023 10:04 9,3 C 8,3 C 6,1 C 100 % 1004,8 hPa 0,0 l/m 0 min 2 min 13 W/m 6,4 km/h (2 Bft) 98,00 %
13.11.2023 10:08 9,3 C 8,3 C 6,1 C 100 % 1004,7 hPa 0,0 l/m 0 min 0 min 14 W/m 6,4 km/h (2 Bft) 99,03 %
13.11.2023 10:10 9,3 C 8,3 C 5,6 C 100 % 1004,7 hPa 0,0 l/m 0 min 2 min 14 W/m 3,2 km/h (1 Bft) 100,00 %
13.11.2023 10:12 9,3 C 8,3 C 5,6 C 100 % 1004,7 hPa 0,0 l/m 0 min 0 min 12 W/m 6,4 km/h (2 Bft) 100,00 %
13.11.2023 10:14 9,3 C 8,3 C 6,1 C 100 % 1004,6 hPa 0,0 l/m 0 min 2 min 11 W/m 12,9 km/h (3 Bft) 100,00 %
13.11.2023 10:16 9,3 C 8,3 C 6,1 C 100 % 1004,7 hPa 0,0 l/m 0 min 2 min 11 W/m 3,2 km/h (1 Bft) 100,00 %
13.11.2023 10:18 9,2 C 8,3 C 6,1 C 100 % 1004,5 hPa 0,0 l/m 0 min 2 min 14 W/m 6,4 km/h (2 Bft) 100,00 %
13.11.2023 10:20 9,2 C 8,3 C 6,1 C 100 % 1004,5 hPa 0,0 l/m 0 min 2 min 16 W/m 3,2 km/h (1 Bft) 100,00 %
13.11.2023 10:22 9,2 C 8,3 C 6,1 C 100 % 1004,5 hPa 0,2 l/m 0 min 2 min 14 W/m 3,2 km/h (1 Bft) 100,00 %
13.11.2023 10:24 9,2 C 8,3 C 6,1 C 100 % 1004,5 hPa 0,0 l/m 0 min 2 min 14 W/m 12,9 km/h (3 Bft) 100,00 %
13.11.2023 10:26 9,2 C 8,3 C 6,1 C 99 % 1004,4 hPa 0,0 l/m 0 min 2 min 16 W/m 6,4 km/h (2 Bft) 100,00 %
13.11.2023 10:28 9,2 C 8,3 C 6,1 C 100 % 1004,3 hPa 0,0 l/m 0 min 0 min 14 W/m 6,4 km/h (2 Bft) 100,00 %
13.11.2023 10:30 9,2 C 8,3 C 6,1 C 99 % 1004,3 hPa 0,0 l/m 0 min 0 min 14 W/m 9,7 km/h (2 Bft) 100,00 %
13.11.2023 10:32 9,2 C 8,3 C 6,1 C 99 % 1004,2 hPa 0,2 l/m 0 min 0 min 14 W/m 3,2 km/h (1 Bft) 97,87 %
13.11.2023 10:34 9,2 C 8,3 C 6,1 C 99 % 1004,1 hPa 0,0 l/m 0 min 0 min 16 W/m 6,4 km/h (2 Bft) 100,00 %
13.11.2023 10:36 9,2 C 8,3 C 6,1 C 99 % 1003,9 hPa 0,0 l/m 0 min 0 min 20 W/m 12,9 km/h (3 Bft) 100,00 %
13.11.2023 10:38 9,2 C 8,3 C 6,1 C 99 % 1003,7 hPa 0,0 l/m 0 min 0 min 19 W/m 3,2 km/h (1 Bft) 100,00 %
13.11.2023 10:40 9,2 C 8,3 C 6,1 C 99 % 1003,7 hPa 0,0 l/m 0 min 0 min 21 W/m 9,7 km/h (2 Bft) 100,00 %
13.11.2023 10:42 9,2 C 8,3 C 6,1 C 100 % 1003,7 hPa 0,2 l/m 0 min 0 min 19 W/m 6,4 km/h (2 Bft) 100,00 %
13.11.2023 10:44 9,2 C 8,3 C 6,1 C 100 % 1003,4 hPa 0,0 l/m 0 min 0 min 18 W/m 6,4 km/h (2 Bft) 100,00 %
13.11.2023 10:46 9,2 C 8,3 C 6,1 C 100 % 1003,4 hPa 0,0 l/m 0 min 0 min 18 W/m 12,9 km/h (3 Bft) 100,00 %
13.11.2023 10:48 9,2 C 8,3 C 6,1 C 100 % 1003,5 hPa 0,0 l/m 0 min 0 min 16 W/m 6,4 km/h (2 Bft) 100,00 %
13.11.2023 10:50 9,2 C 8,3 C 6,1 C 100 % 1003,4 hPa 0,0 l/m 0 min 0 min 17 W/m 12,9 km/h (3 Bft) 100,00 %
13.11.2023 10:52 9,2 C 8,3 C 6,1 C 100 % 1003,4 hPa 0,0 l/m 0 min 0 min 16 W/m 6,4 km/h (2 Bft) 100,00 %
13.11.2023 10:54 9,3 C 8,3 C 6,1 C 100 % 1003,3 hPa 0,0 l/m 0 min 0 min 14 W/m 6,4 km/h (2 Bft) 100,00 %
13.11.2023 10:56 9,3 C 8,3 C 6,1 C 100 % 1003,1 hPa 0,0 l/m 0 min 0 min 14 W/m 12,9 km/h (3 Bft) 100,00 %
13.11.2023 10:58 9,2 C 8,3 C 6,1 C 100 % 1003,1 hPa 0,0 l/m 0 min 0 min 13 W/m 16,1 km/h (3 Bft) 97,73 %
13.11.2023 11:00 9,2 C 8,3 C 6,1 C 99 % 1003,1 hPa 0,0 l/m 0 min 0 min 14 W/m 12,9 km/h (3 Bft) 100,00 %
13.11.2023 11:02 9,2 C 8,3 C 6,1 C 99 % 1002,9 hPa 0,2 l/m 0 min 0 min 16 W/m 16,1 km/h (3 Bft) 100,00 %
13.11.2023 11:04 9,2 C 8,3 C 6,1 C 99 % 1003,0 hPa 0,0 l/m 0 min 0 min 15 W/m 16,1 km/h (3 Bft) 97,96 %
13.11.2023 11:06 9,3 C 8,3 C 6,1 C 99 % 1002,8 hPa 0,0 l/m 0 min 0 min 14 W/m 25,7 km/h (4 Bft) 97,96 %
13.11.2023 11:08 9,3 C 8,3 C 6,1 C 99 % 1002,7 hPa 0,0 l/m 0 min 0 min 17 W/m 12,9 km/h (3 Bft) 100,00 %
13.11.2023 11:10 9,3 C 8,3 C 6,1 C 99 % 1002,7 hPa 0,0 l/m 0 min 0 min 18 W/m 16,1 km/h (3 Bft) 100,00 %
13.11.2023 11:12 9,3 C 8,9 C 6,1 C 100 % 1002,7 hPa 0,0 l/m 0 min 0 min 18 W/m 12,9 km/h (3 Bft) 97,14 %
13.11.2023 11:14 9,3 C 8,9 C 6,1 C 100 % 1002,7 hPa 0,0 l/m 0 min 0 min 16 W/m 6,4 km/h (2 Bft) 95,74 %
13.11.2023 11:16 9,3 C 8,9 C 6,1 C 100 % 1002,6 hPa 0,0 l/m 0 min 0 min 16 W/m 19,3 km/h (3 Bft) 97,87 %
13.11.2023 11:18 9,3 C 8,9 C 6,1 C 100 % 1002,6 hPa 0,0 l/m 0 min 0 min 19 W/m 9,7 km/h (2 Bft) 97,87 %
13.11.2023 11:20 9,3 C 8,9 C 6,1 C 100 % 1002,6 hPa 0,0 l/m 0 min 0 min 23 W/m 9,7 km/h (2 Bft) 97,87 %
13.11.2023 11:22 9,3 C 8,9 C 6,1 C 100 % 1002,4 hPa 0,0 l/m 0 min 0 min 25 W/m 12,9 km/h (3 Bft) 97,87 %
13.11.2023 11:24 9,4 C 8,9 C 6,1 C 100 % 1002,4 hPa 0,0 l/m 0 min 0 min 25 W/m 12,9 km/h (3 Bft) 95,65 %
13.11.2023 11:26 9,4 C 8,9 C 6,1 C 100 % 1002,4 hPa 0,0 l/m 0 min 0 min 22 W/m 16,1 km/h (3 Bft) 93,62 %
13.11.2023 11:28 9,4 C 8,9 C 6,1 C 100 % 1002,2 hPa 0,0 l/m 0 min 0 min 19 W/m 22,5 km/h (4 Bft) 95,74 %
13.11.2023 11:30 9,4 C 8,9 C 6,1 C 100 % 1002,2 hPa 0,0 l/m 0 min 0 min 21 W/m 16,1 km/h (3 Bft) 95,74 %
13.11.2023 11:32 9,4 C 8,9 C 6,1 C 100 % 1002,2 hPa 0,0 l/m 0 min 0 min 27 W/m 12,9 km/h (3 Bft) 95,74 %
13.11.2023 11:34 9,4 C 8,9 C 6,1 C 100 % 1002,1 hPa 0,0 l/m 0 min 0 min 32 W/m 12,9 km/h (3 Bft) 95,74 %
13.11.2023 11:36 9,4 C 8,9 C 6,1 C 100 % 1002,0 hPa 0,0 l/m 0 min 0 min 33 W/m 16,1 km/h (3 Bft) 95,74 %
13.11.2023 11:38 9,5 C 8,9 C 6,1 C 100 % 1002,0 hPa 0,0 l/m 0 min 0 min 26 W/m 16,1 km/h (3 Bft) 93,62 %
13.11.2023 11:40 9,5 C 8,9 C 6,7 C 100 % 1002,0 hPa 0,0 l/m 0 min 0 min 21 W/m 12,9 km/h (3 Bft) 93,62 %
13.11.2023 11:42 9,5 C 8,9 C 6,7 C 100 % 1002,0 hPa 0,0 l/m 0 min 0 min 25 W/m 16,1 km/h (3 Bft) 95,65 %
13.11.2023 11:44 9,6 C 8,9 C 6,7 C 100 % 1002,0 hPa 0,0 l/m 0 min 0 min 37 W/m 16,1 km/h (3 Bft) 93,62 %
13.11.2023 11:46 9,6 C 8,9 C 6,7 C 100 % 1001,8 hPa 0,0 l/m 0 min 0 min 54 W/m 12,9 km/h (3 Bft) 97,87 %
13.11.2023 11:48 9,6 C 9,4 C 6,7 C 100 % 1001,7 hPa 0,0 l/m 0 min 0 min 70 W/m 12,9 km/h (3 Bft) 93,62 %
13.11.2023 11:50 9,6 C 9,4 C 6,7 C 100 % 1001,6 hPa 0,0 l/m 0 min 0 min 64 W/m 6,4 km/h (2 Bft) 93,62 %
13.11.2023 11:52 9,6 C 9,4 C 6,7 C 100 % 1001,7 hPa 0,0 l/m 0 min 0 min 55 W/m 12,9 km/h (3 Bft) 93,62 %
13.11.2023 11:54 9,6 C 9,4 C 6,7 C 100 % 1001,6 hPa 0,0 l/m 0 min 0 min 88 W/m 6,4 km/h (2 Bft) 94,44 %
13.11.2023 11:56 9,7 C 9,4 C 6,7 C 100 % 1001,7 hPa 0,0 l/m 0 min 0 min 79 W/m 6,4 km/h (2 Bft) 95,38 %
13.11.2023 11:58 9,7 C 9,4 C 6,7 C 100 % 1001,6 hPa 0,0 l/m 0 min 0 min 79 W/m 12,9 km/h (3 Bft) 97,96 %
13.11.2023 12:00 9,8 C 9,4 C 6,7 C 100 % 1001,6 hPa 0,0 l/m 0 min 0 min 82 W/m 12,9 km/h (3 Bft) 91,49 %
13.11.2023 12:02 9,8 C 9,4 C 6,7 C 100 % 1001,6 hPa 0,0 l/m 0 min 0 min 94 W/m 6,4 km/h (2 Bft) 97,30 %
13.11.2023 12:04 9,8 C 9,4 C 6,7 C 100 % 1001,5 hPa 0,0 l/m 0 min 0 min 106 W/m 12,9 km/h (3 Bft) 93,62 %
13.11.2023 12:08 9,9 C 10,0 C 6,7 C 100 % 1001,5 hPa 0,0 l/m 0 min 0 min 103 W/m 12,9 km/h (3 Bft) 95,00 %
13.11.2023 12:10 10,0 C 10,0 C 7,2 C 100 % 1001,5 hPa 0,0 l/m 0 min 0 min 105 W/m 12,9 km/h (3 Bft) 95,00 %
13.11.2023 12:12 10,1 C 10,0 C 7,2 C 100 % 1001,5 hPa 0,0 l/m 0 min 0 min 102 W/m 6,4 km/h (2 Bft) 97,87 %
13.11.2023 12:16 10,1 C 10,0 C 7,2 C 100 % 1001,4 hPa 0,0 l/m 0 min 0 min 91 W/m 9,7 km/h (2 Bft) 96,77 %
13.11.2023 12:18 10,1 C 10,0 C 7,2 C 100 % 1001,3 hPa 0,0 l/m 0 min 0 min 86 W/m 6,4 km/h (2 Bft) 95,74 %
13.11.2023 12:20 10,1 C 10,0 C 7,2 C 100 % 1001,2 hPa 0,0 l/m 0 min 0 min 77 W/m 16,1 km/h (3 Bft) 95,74 %
13.11.2023 12:22 10,2 C 10,0 C 7,2 C 100 % 1001,2 hPa 0,0 l/m 0 min 0 min 71 W/m 19,3 km/h (3 Bft) 97,87 %
13.11.2023 12:24 10,2 C 10,0 C 7,2 C 100 % 1001,1 hPa 0,0 l/m 0 min 0 min 54 W/m 16,1 km/h (3 Bft) 97,87 %
13.11.2023 12:26 10,2 C 10,0 C 7,2 C 100 % 1001,2 hPa 0,0 l/m 0 min 0 min 47 W/m 9,7 km/h (2 Bft) 97,87 %
13.11.2023 12:28 10,2 C 10,0 C 7,2 C 100 % 1001,0 hPa 0,0 l/m 0 min 0 min 64 W/m 12,9 km/h (3 Bft) 97,87 %
13.11.2023 12:30 10,2 C 10,0 C 7,2 C 100 % 1001,0 hPa 0,0 l/m 0 min 0 min 75 W/m 6,4 km/h (2 Bft) 100,00 %
13.11.2023 12:32 10,2 C 10,0 C 7,2 C 100 % 1001,0 hPa 0,0 l/m 0 min 0 min 66 W/m 3,2 km/h (1 Bft) 97,87 %
13.11.2023 12:34 10,2 C 10,0 C 7,2 C 100 % 1000,9 hPa 0,0 l/m 0 min 0 min 57 W/m 6,4 km/h (2 Bft) 95,65 %
13.11.2023 12:36 10,2 C 10,0 C 7,2 C 100 % 1000,9 hPa 0,0 l/m 0 min 0 min 42 W/m 6,4 km/h (2 Bft) 95,74 %
13.11.2023 12:38 10,2 C 10,0 C 7,2 C 100 % 1000,9 hPa 0,0 l/m 0 min 0 min 36 W/m 6,4 km/h (2 Bft) 100,00 %
13.11.2023 12:40 10,3 C 10,0 C 7,2 C 100 % 1000,9 hPa 0,0 l/m 0 min 0 min 31 W/m 12,9 km/h (3 Bft) 100,00 %
13.11.2023 12:42 10,3 C 10,0 C 7,2 C 100 % 1000,8 hPa 0,0 l/m 0 min 0 min 33 W/m 6,4 km/h (2 Bft) 100,00 %
13.11.2023 12:44 10,3 C 10,0 C 7,2 C 100 % 1000,8 hPa 0,0 l/m 0 min 0 min 30 W/m 12,9 km/h (3 Bft) 97,87 %
13.11.2023 12:46 10,3 C 10,0 C 7,2 C 100 % 1000,8 hPa 0,0 l/m 0 min 0 min 27 W/m 6,4 km/h (2 Bft) 100,00 %
13.11.2023 12:48 10,3 C 10,0 C 7,2 C 100 % 1000,7 hPa 0,0 l/m 0 min 0 min 26 W/m 6,4 km/h (2 Bft) 97,87 %
13.11.2023 12:50 10,3 C 10,0 C 7,2 C 100 % 1000,7 hPa 0,0 l/m 0 min 0 min 19 W/m 6,4 km/h (2 Bft) 100,00 %
13.11.2023 12:52 10,3 C 10,0 C 7,2 C 100 % 1000,7 hPa 0,0 l/m 0 min 0 min 15 W/m 12,9 km/h (3 Bft) 100,00 %
13.11.2023 12:54 10,3 C 10,0 C 7,2 C 100 % 1000,6 hPa 0,0 l/m 0 min 2 min 14 W/m 6,4 km/h (2 Bft) 97,92 %
13.11.2023 12:56 10,3 C 10,0 C 7,2 C 100 % 1000,7 hPa 0,0 l/m 0 min 2 min 11 W/m 9,7 km/h (2 Bft) 100,00 %
13.11.2023 12:58 10,3 C 10,0 C 7,2 C 100 % 1000,6 hPa 0,2 l/m 0 min 2 min 11 W/m 12,9 km/h (3 Bft) 97,87 %
13.11.2023 13:00 10,3 C 10,0 C 7,2 C 100 % 1000,6 hPa 0,0 l/m 0 min 2 min 13 W/m 9,7 km/h (2 Bft) 95,74 %
13.11.2023 13:02 10,3 C 10,0 C 7,2 C 100 % 1000,5 hPa 0,2 l/m 0 min 2 min 14 W/m 3,2 km/h (1 Bft) 97,83 %
13.11.2023 13:04 10,3 C 10,0 C 7,2 C 100 % 1000,5 hPa 0,2 l/m 0 min 2 min 12 W/m 3,2 km/h (1 Bft) 100,00 %
13.11.2023 13:06 10,3 C 10,0 C 7,2 C 100 % 1000,4 hPa 0,0 l/m 0 min 2 min 9 W/m 6,4 km/h (2 Bft) 100,00 %
13.11.2023 13:08 10,3 C 10,0 C 7,2 C 100 % 1000,3 hPa 0,2 l/m 0 min 2 min 12 W/m 6,4 km/h (2 Bft) 97,87 %
13.11.2023 13:10 10,3 C 10,0 C 7,2 C 100 % 1000,2 hPa 0,0 l/m 0 min 2 min 13 W/m 12,9 km/h (3 Bft) 97,87 %
13.11.2023 13:12 10,4 C 10,0 C 7,2 C 100 % 1000,1 hPa 0,2 l/m 0 min 2 min 16 W/m 12,9 km/h (3 Bft) 97,87 %
13.11.2023 13:14 10,4 C 10,0 C 7,2 C 100 % 1000,0 hPa 0,2 l/m 0 min 2 min 19 W/m 6,4 km/h (2 Bft) 97,87 %
13.11.2023 13:16 10,4 C 10,0 C 7,2 C 100 % 999,9 hPa 0,0 l/m 0 min 2 min 28 W/m 6,4 km/h (2 Bft) 97,87 %
13.11.2023 13:18 10,5 C 10,0 C 7,2 C 100 % 999,7 hPa 0,2 l/m 0 min 2 min 50 W/m 6,4 km/h (2 Bft) 97,87 %
13.11.2023 13:20 10,6 C 10,0 C 7,2 C 100 % 999,7 hPa 0,0 l/m 0 min 2 min 67 W/m 6,4 km/h (2 Bft) 93,62 %
13.11.2023 13:22 10,6 C 10,0 C 7,2 C 100 % 999,6 hPa 0,0 l/m 0 min 0 min 66 W/m 6,4 km/h (2 Bft) 97,87 %
13.11.2023 13:24 10,7 C 10,0 C 7,8 C 100 % 999,5 hPa 0,0 l/m 0 min 0 min 67 W/m 12,9 km/h (3 Bft) 95,92 %
13.11.2023 13:26 10,7 C 10,6 C 7,8 C 100 % 999,5 hPa 0,0 l/m 0 min 0 min 56 W/m 6,4 km/h (2 Bft) 97,87 %
13.11.2023 13:28 10,8 C 10,6 C 7,8 C 100 % 999,4 hPa 0,0 l/m 0 min 2 min 41 W/m 9,7 km/h (2 Bft) 97,87 %
13.11.2023 13:30 10,8 C 10,6 C 7,8 C 100 % 999,4 hPa 0,0 l/m 0 min 0 min 35 W/m 12,9 km/h (3 Bft) 97,87 %
13.11.2023 13:32 10,8 C 10,6 C 7,8 C 100 % 999,4 hPa 0,0 l/m 0 min 2 min 20 W/m 6,4 km/h (2 Bft) 97,87 %
13.11.2023 13:34 10,8 C 10,6 C 7,8 C 100 % 999,4 hPa 0,0 l/m 0 min 2 min 18 W/m 3,2 km/h (1 Bft) 97,87 %
13.11.2023 13:36 10,9 C 10,6 C 7,8 C 100 % 999,3 hPa 0,0 l/m 0 min 0 min 17 W/m 6,4 km/h (2 Bft) 97,87 %
13.11.2023 13:38 10,9 C 10,6 C 7,8 C 100 % 999,3 hPa 0,0 l/m 0 min 0 min 17 W/m 3,2 km/h (1 Bft) 97,87 %
13.11.2023 13:40 10,9 C 10,6 C 7,8 C 100 % 999,3 hPa 0,0 l/m 0 min 0 min 19 W/m 6,4 km/h (2 Bft) 97,87 %
13.11.2023 13:42 11,0 C 10,6 C 7,8 C 100 % 999,3 hPa 0,0 l/m 0 min 0 min 26 W/m 3,2 km/h (1 Bft) 95,65 %
13.11.2023 13:44 11,0 C 10,6 C 7,8 C 100 % 999,2 hPa 0,0 l/m 0 min 0 min 27 W/m 6,4 km/h (2 Bft) 97,87 %
13.11.2023 13:46 11,1 C 10,6 C 7,8 C 100 % 999,0 hPa 0,0 l/m 0 min 0 min 21 W/m 16,1 km/h (3 Bft) 100,00 %
13.11.2023 13:48 11,1 C 10,6 C 7,8 C 100 % 999,1 hPa 0,0 l/m 0 min 0 min 17 W/m 16,1 km/h (3 Bft) 100,00 %
13.11.2023 13:50 11,2 C 10,6 C 7,8 C 100 % 999,0 hPa 0,0 l/m 0 min 0 min 23 W/m 6,4 km/h (2 Bft) 97,87 %
13.11.2023 13:52 11,3 C 10,6 C 7,8 C 100 % 998,9 hPa 0,0 l/m 0 min 2 min 22 W/m 6,4 km/h (2 Bft) 100,00 %
13.11.2023 13:54 11,3 C 11,1 C 8,3 C 100 % 998,9 hPa 0,2 l/m 0 min 0 min 23 W/m 6,4 km/h (2 Bft) 100,00 %
13.11.2023 13:56 11,4 C 11,1 C 8,3 C 100 % 998,8 hPa 0,0 l/m 0 min 0 min 24 W/m 6,4 km/h (2 Bft) 97,87 %
13.11.2023 13:58 11,4 C 11,1 C 8,3 C 100 % 998,7 hPa 0,0 l/m 0 min 2 min 30 W/m 9,7 km/h (2 Bft) 100,00 %
13.11.2023 14:00 11,6 C 11,1 C 8,3 C 100 % 998,6 hPa 0,0 l/m 0 min 0 min 32 W/m 16,1 km/h (3 Bft) 95,74 %
13.11.2023 14:02 11,8 C 11,7 C 8,3 C 100 % 998,7 hPa 0,0 l/m 0 min 0 min 32 W/m 16,1 km/h (3 Bft) 97,87 %
13.11.2023 14:04 12,1 C 11,7 C 8,9 C 100 % 998,6 hPa 0,0 l/m 0 min 2 min 33 W/m 12,9 km/h (3 Bft) 97,67 %
13.11.2023 14:08 12,4 C 12,2 C 8,9 C 100 % 998,6 hPa 0,0 l/m 0 min 4 min 22 W/m 16,1 km/h (3 Bft) 97,80 %
13.11.2023 14:09 12,6 C 12,2 C 9,4 C 100 % 998,7 hPa 0,0 l/m 0 min 0 min 19 W/m 9,7 km/h (2 Bft) 95,65 %
13.11.2023 14:10 12,6 C 12,2 C 9,4 C 100 % 998,7 hPa 0,0 l/m 0 min 0 min 20 W/m 16,1 km/h (3 Bft) 100,00 %
13.11.2023 14:14 13,1 C 12,8 C 9,4 C 100 % 998,5 hPa 0,0 l/m 0 min 4 min 20 W/m 25,7 km/h (4 Bft) 97,87 %
13.11.2023 14:16 13,2 C 12,8 C 9,4 C 100 % 998,6 hPa 0,2 l/m 0 min 2 min 19 W/m 25,7 km/h (4 Bft) 97,87 %
13.11.2023 14:18 13,2 C 12,8 C 10,0 C 100 % 998,6 hPa 0,0 l/m 0 min 2 min 18 W/m 22,5 km/h (4 Bft) 97,87 %
13.11.2023 14:20 13,3 C 12,8 C 10,0 C 100 % 998,5 hPa 0,0 l/m 0 min 0 min 18 W/m 29,0 km/h (5 Bft) 97,87 %
13.11.2023 14:22 13,3 C 12,8 C 10,0 C 100 % 998,6 hPa 0,2 l/m 0 min 0 min 17 W/m 25,7 km/h (4 Bft) 100,00 %
13.11.2023 14:24 13,4 C 12,8 C 10,0 C 100 % 998,6 hPa 0,0 l/m 0 min 0 min 18 W/m 35,4 km/h (5 Bft) 91,49 %
13.11.2023 14:26 13,4 C 12,8 C 10,0 C 100 % 998,4 hPa 0,0 l/m 0 min 0 min 18 W/m 19,3 km/h (3 Bft) 93,48 %
13.11.2023 14:28 13,5 C 12,8 C 10,0 C 100 % 998,3 hPa 0,0 l/m 0 min 0 min 19 W/m 41,8 km/h (6 Bft) 97,87 %
13.11.2023 14:30 13,5 C 12,8 C 10,0 C 100 % 998,3 hPa 0,0 l/m 0 min 0 min 20 W/m 38,6 km/h (5 Bft) 97,87 %
13.11.2023 14:32 13,6 C 12,8 C 10,0 C 100 % 998,3 hPa 0,0 l/m 0 min 0 min 18 W/m 32,2 km/h (5 Bft) 97,87 %
13.11.2023 14:34 13,6 C 12,8 C 10,0 C 100 % 998,3 hPa 0,2 l/m 0 min 0 min 17 W/m 19,3 km/h (3 Bft) 97,87 %
13.11.2023 14:36 13,6 C 12,8 C 10,0 C 100 % 998,3 hPa 0,0 l/m 0 min 0 min 17 W/m 38,6 km/h (5 Bft) 95,74 %
13.11.2023 14:38 13,7 C 12,8 C 10,0 C 100 % 998,3 hPa 0,0 l/m 0 min 2 min 19 W/m 29,0 km/h (5 Bft) 95,74 %
13.11.2023 14:40 13,7 C 12,8 C 10,0 C 100 % 998,4 hPa 0,0 l/m 0 min 2 min 24 W/m 29,0 km/h (5 Bft) 93,62 %
13.11.2023 14:42 13,7 C 12,8 C 10,0 C 100 % 998,4 hPa 0,0 l/m 0 min 0 min 26 W/m 32,2 km/h (5 Bft) 95,74 %
13.11.2023 14:44 13,7 C 12,8 C 10,0 C 100 % 998,3 hPa 0,0 l/m 0 min 0 min 25 W/m 32,2 km/h (5 Bft) 95,65 %
13.11.2023 14:46 13,7 C 12,8 C 10,6 C 100 % 998,2 hPa 0,0 l/m 0 min 0 min 26 W/m 22,5 km/h (4 Bft) 95,74 %
13.11.2023 14:48 13,7 C 12,8 C 10,0 C 100 % 998,0 hPa 0,0 l/m 0 min 0 min 25 W/m 19,3 km/h (3 Bft) 97,87 %
13.11.2023 14:50 13,7 C 12,8 C 10,6 C 100 % 998,1 hPa 0,2 l/m 0 min 2 min 31 W/m 19,3 km/h (3 Bft) 98,00 %
13.11.2023 14:52 13,7 C 12,8 C 10,6 C 100 % 998,2 hPa 0,0 l/m 0 min 2 min 36 W/m 22,5 km/h (4 Bft) 97,87 %
13.11.2023 14:54 13,7 C 12,8 C 10,6 C 100 % 998,2 hPa 0,0 l/m 0 min 2 min 31 W/m 22,5 km/h (4 Bft) 97,87 %
13.11.2023 14:56 13,8 C 12,8 C 10,6 C 100 % 998,2 hPa 0,0 l/m 0 min 0 min 31 W/m 19,3 km/h (3 Bft) 95,74 %
13.11.2023 14:58 13,8 C 12,8 C 10,6 C 100 % 998,2 hPa 0,0 l/m 0 min 0 min 27 W/m 25,7 km/h (4 Bft) 97,87 %
13.11.2023 15:00 13,8 C 12,8 C 10,6 C 100 % 998,2 hPa 0,0 l/m 0 min 0 min 17 W/m 19,3 km/h (3 Bft) 97,87 %
13.11.2023 15:02 13,8 C 12,8 C 10,6 C 100 % 998,2 hPa 0,0 l/m 0 min 0 min 14 W/m 16,1 km/h (3 Bft) 95,74 %
13.11.2023 15:04 13,8 C 12,8 C 10,6 C 100 % 998,2 hPa 0,0 l/m 0 min 2 min 15 W/m 19,3 km/h (3 Bft) 95,35 %
13.11.2023 15:08 13,8 C 12,8 C 10,6 C 100 % 998,3 hPa 0,0 l/m 0 min 4 min 16 W/m 22,5 km/h (4 Bft) 97,12 %
13.11.2023 15:09 13,8 C 12,8 C 10,6 C 100 % 998,2 hPa 0,0 l/m 0 min 1 min 13 W/m 22,5 km/h (4 Bft) 91,30 %
13.11.2023 15:12 13,8 C 12,8 C 10,6 C 100 % 998,1 hPa 0,2 l/m 0 min 3 min 19 W/m 41,8 km/h (6 Bft) 94,92 %
13.11.2023 15:14 13,9 C 12,8 C 10,6 C 100 % 998,0 hPa 0,0 l/m 0 min 2 min 31 W/m 25,7 km/h (4 Bft) 95,74 %
13.11.2023 15:16 13,9 C 12,8 C 10,6 C 100 % 998,1 hPa 0,0 l/m 0 min 2 min 36 W/m 25,7 km/h (4 Bft) 91,49 %
13.11.2023 15:18 13,9 C 12,8 C 10,6 C 100 % 998,1 hPa 0,0 l/m 0 min 2 min 24 W/m 16,1 km/h (3 Bft) 95,74 %
13.11.2023 15:20 13,9 C 12,8 C 10,6 C 100 % 998,1 hPa 0,0 l/m 0 min 0 min 18 W/m 19,3 km/h (3 Bft) 97,83 %
13.11.2023 15:22 13,9 C 12,8 C 10,6 C 100 % 998,0 hPa 0,2 l/m 0 min 2 min 11 W/m 19,3 km/h (3 Bft) 97,87 %
13.11.2023 15:24 13,9 C 12,8 C 10,6 C 100 % 997,9 hPa 0,2 l/m 0 min 2 min 8 W/m 22,5 km/h (4 Bft) 97,87 %
13.11.2023 15:26 13,9 C 12,8 C 10,6 C 100 % 997,9 hPa 0,2 l/m 0 min 2 min 8 W/m 22,5 km/h (4 Bft) 93,62 %
13.11.2023 15:28 13,9 C 12,8 C 10,6 C 100 % 997,9 hPa 0,2 l/m 0 min 2 min 15 W/m 9,7 km/h (2 Bft) 97,87 %
13.11.2023 15:30 13,9 C 12,8 C 10,6 C 100 % 997,9 hPa 0,4 l/m 0 min 2 min 10 W/m 16,1 km/h (3 Bft) 97,87 %
13.11.2023 15:32 13,9 C 12,8 C 10,6 C 100 % 998,1 hPa 0,2 l/m 0 min 2 min 3 W/m 16,1 km/h (3 Bft) 97,87 %
13.11.2023 15:34 13,9 C 12,8 C 10,6 C 100 % 998,2 hPa 0,4 l/m 0 min 2 min 0 W/m 16,1 km/h (3 Bft) 95,74 %
13.11.2023 15:36 13,9 C 12,8 C 10,6 C 100 % 998,2 hPa 0,8 l/m 0 min 2 min 6 W/m 19,3 km/h (3 Bft) 97,87 %
13.11.2023 15:38 13,9 C 12,8 C 10,6 C 100 % 998,1 hPa 0,6 l/m 0 min 2 min 18 W/m 25,7 km/h (4 Bft) 97,83 %
13.11.2023 15:40 13,9 C 12,8 C 10,6 C 100 % 998,0 hPa 0,8 l/m 0 min 2 min 31 W/m 22,5 km/h (4 Bft) 95,74 %
13.11.2023 15:42 13,9 C 12,8 C 10,6 C 100 % 997,8 hPa 0,4 l/m 0 min 2 min 23 W/m 22,5 km/h (4 Bft) 97,87 %
13.11.2023 15:44 13,9 C 12,8 C 10,6 C 100 % 997,8 hPa 0,2 l/m 0 min 2 min 12 W/m 22,5 km/h (4 Bft) 100,00 %
13.11.2023 15:46 13,9 C 12,8 C 10,6 C 100 % 997,9 hPa 0,0 l/m 0 min 2 min 12 W/m 19,3 km/h (3 Bft) 100,00 %
13.11.2023 15:48 13,8 C 12,8 C 10,6 C 100 % 997,9 hPa 0,0 l/m 0 min 0 min 18 W/m 38,6 km/h (5 Bft) 100,00 %
13.11.2023 15:50 13,8 C 12,8 C 10,6 C 100 % 997,8 hPa 0,0 l/m 0 min 2 min 16 W/m 22,5 km/h (4 Bft) 100,00 %
13.11.2023 15:52 13,8 C 12,8 C 10,6 C 100 % 997,8 hPa 0,0 l/m 0 min 2 min 19 W/m 19,3 km/h (3 Bft) 100,00 %
13.11.2023 15:54 13,8 C 12,8 C 10,6 C 100 % 997,9 hPa 0,0 l/m 0 min 2 min 26 W/m 22,5 km/h (4 Bft) 97,87 %
13.11.2023 15:56 13,8 C 12,8 C 10,6 C 100 % 997,8 hPa 0,2 l/m 0 min 2 min 28 W/m 25,7 km/h (4 Bft) 100,00 %
13.11.2023 15:58 13,9 C 12,8 C 10,6 C 100 % 997,8 hPa 0,0 l/m 0 min 2 min 16 W/m 29,0 km/h (5 Bft) 97,87 %
13.11.2023 16:00 13,8 C 12,8 C 10,6 C 100 % 997,9 hPa 0,0 l/m 0 min 2 min 9 W/m 16,1 km/h (3 Bft) 95,74 %
13.11.2023 16:02 13,8 C 12,8 C 10,6 C 100 % 998,1 hPa 0,0 l/m 0 min 2 min 5 W/m 25,7 km/h (4 Bft) 100,00 %
13.11.2023 16:04 13,8 C 12,8 C 10,6 C 100 % 998,1 hPa 0,0 l/m 0 min 2 min 1 W/m 16,1 km/h (3 Bft) 100,00 %
13.11.2023 16:06 13,8 C 12,8 C 10,6 C 100 % 998,2 hPa 0,0 l/m 0 min 2 min 0 W/m 19,3 km/h (3 Bft) 97,87 %
13.11.2023 16:08 13,8 C 12,8 C 10,6 C 100 % 998,2 hPa 0,0 l/m 0 min 2 min 0 W/m 25,7 km/h (4 Bft) 100,00 %
13.11.2023 16:10 13,8 C 12,8 C 10,6 C 100 % 998,2 hPa 0,0 l/m 0 min 2 min 7 W/m 19,3 km/h (3 Bft) 97,83 %
13.11.2023 16:12 13,8 C 12,8 C 10,6 C 100 % 998,2 hPa 0,0 l/m 0 min 2 min 16 W/m 29,0 km/h (5 Bft) 100,00 %
13.11.2023 16:14 13,8 C 12,8 C 10,6 C 100 % 998,1 hPa 0,0 l/m 2 min 2 min 37 W/m 22,5 km/h (4 Bft) 100,00 %
13.11.2023 16:16 13,8 C 12,8 C 10,6 C 100 % 998,1 hPa 0,2 l/m 2 min 2 min 71 W/m 19,3 km/h (3 Bft) 100,00 %
13.11.2023 16:18 13,8 C 12,8 C 10,6 C 100 % 998,1 hPa 0,0 l/m 2 min 2 min 36 W/m 19,3 km/h (3 Bft) 100,00 %
13.11.2023 16:20 13,8 C 12,8 C 10,6 C 100 % 998,1 hPa 0,0 l/m 0 min 0 min 13 W/m 12,9 km/h (3 Bft) 97,87 %
13.11.2023 16:22 13,8 C 12,8 C 10,6 C 100 % 998,1 hPa 0,0 l/m 0 min 0 min 8 W/m 16,1 km/h (3 Bft) 97,87 %
13.11.2023 16:24 13,8 C 12,8 C 10,6 C 100 % 998,1 hPa 0,0 l/m 0 min 0 min 5 W/m 19,3 km/h (3 Bft) 100,00 %
13.11.2023 16:26 13,7 C 12,8 C 10,6 C 100 % 998,0 hPa 0,0 l/m 0 min 0 min 5 W/m 22,5 km/h (4 Bft) 100,00 %
13.11.2023 16:28 13,7 C 12,8 C 10,6 C 99 % 997,9 hPa 0,0 l/m 0 min 0 min 7 W/m 25,7 km/h (4 Bft) 97,83 %
13.11.2023 16:30 13,7 C 12,8 C 10,6 C 100 % 998,0 hPa 0,0 l/m 0 min 0 min 7 W/m 22,5 km/h (4 Bft) 97,87 %
13.11.2023 16:32 13,7 C 12,8 C 10,6 C 99 % 998,1 hPa 0,0 l/m 0 min 0 min 9 W/m 12,9 km/h (3 Bft) 100,00 %
13.11.2023 16:34 13,7 C 12,8 C 10,0 C 99 % 998,1 hPa 0,0 l/m 0 min 0 min 8 W/m 16,1 km/h (3 Bft) 100,00 %
13.11.2023 16:36 13,7 C 12,8 C 10,0 C 99 % 998,0 hPa 0,0 l/m 0 min 0 min 7 W/m 25,7 km/h (4 Bft) 97,87 %
13.11.2023 16:38 13,7 C 12,8 C 10,6 C 99 % 997,9 hPa 0,0 l/m 0 min 0 min 7 W/m 19,3 km/h (3 Bft) 97,87 %
13.11.2023 16:40 13,7 C 12,8 C 10,0 C 99 % 997,9 hPa 0,0 l/m 0 min 0 min 8 W/m 16,1 km/h (3 Bft) 95,74 %
13.11.2023 16:42 13,7 C 12,8 C 10,0 C 99 % 998,0 hPa 0,0 l/m 0 min 0 min 12 W/m 9,7 km/h (2 Bft) 97,87 %
13.11.2023 16:44 13,6 C 12,8 C 10,0 C 99 % 998,2 hPa 0,0 l/m 0 min 0 min 12 W/m 16,1 km/h (3 Bft) 95,74 %
13.11.2023 16:46 13,6 C 12,8 C 10,0 C 99 % 998,1 hPa 0,0 l/m 0 min 0 min 12 W/m 12,9 km/h (3 Bft) 97,83 %
13.11.2023 16:48 13,6 C 12,2 C 10,0 C 99 % 998,2 hPa 0,0 l/m 0 min 0 min 12 W/m 6,4 km/h (2 Bft) 97,87 %
13.11.2023 16:50 13,6 C 12,2 C 10,0 C 99 % 998,4 hPa 0,0 l/m 0 min 0 min 5 W/m 12,9 km/h (3 Bft) 97,87 %
13.11.2023 16:52 13,6 C 12,2 C 10,0 C 99 % 998,4 hPa 0,0 l/m 0 min 0 min 0 W/m 25,7 km/h (4 Bft) 97,87 %
13.11.2023 16:54 13,6 C 12,2 C 10,0 C 99 % 998,4 hPa 0,0 l/m 0 min 0 min 0 W/m 32,2 km/h (5 Bft) 97,87 %
13.11.2023 16:56 13,6 C 12,2 C 10,0 C 99 % 998,4 hPa 0,0 l/m 0 min 0 min 0 W/m 19,3 km/h (3 Bft) 96,00 %
13.11.2023 16:58 13,6 C 12,2 C 10,0 C 99 % 998,4 hPa 0,0 l/m 0 min 0 min 0 W/m 9,7 km/h (2 Bft) 97,62 %
13.11.2023 17:00 13,5 C 12,2 C 10,0 C 99 % 998,4 hPa 0,0 l/m 0 min 0 min 0 W/m 16,1 km/h (3 Bft) 95,74 %
13.11.2023 17:02 13,4 C 12,2 C 10,0 C 99 % 998,5 hPa 0,0 l/m 0 min 0 min 0 W/m 22,5 km/h (4 Bft) 97,67 %
13.11.2023 17:04 13,4 C 12,2 C 10,0 C 99 % 998,4 hPa 0,0 l/m 0 min 0 min 0 W/m 9,7 km/h (2 Bft) 93,48 %
13.11.2023 17:10 13,3 C 12,2 C 9,4 C 99 % 998,6 hPa 0,0 l/m 0 min 0 min 0 W/m 19,3 km/h (3 Bft) 95,24 %
13.11.2023 17:12 13,3 C 12,2 C 9,4 C 98 % 998,7 hPa 0,0 l/m 0 min 0 min 0 W/m 19,3 km/h (3 Bft) 92,50 %
13.11.2023 17:14 13,2 C 12,2 C 9,4 C 98 % 998,8 hPa 0,0 l/m 0 min 0 min 0 W/m 19,3 km/h (3 Bft) 91,49 %
13.11.2023 17:16 13,2 C 12,2 C 9,4 C 98 % 998,8 hPa 0,0 l/m 0 min 0 min 0 W/m 22,5 km/h (4 Bft) 93,62 %
13.11.2023 17:18 13,2 C 12,2 C 9,4 C 98 % 998,8 hPa 0,0 l/m 0 min 0 min 0 W/m 25,7 km/h (4 Bft) 93,62 %
13.11.2023 17:20 13,1 C 12,2 C 9,4 C 98 % 998,8 hPa 0,0 l/m 0 min 0 min 0 W/m 19,3 km/h (3 Bft) 93,62 %
13.11.2023 17:22 13,1 C 11,7 C 9,4 C 98 % 998,8 hPa 0,0 l/m 0 min 0 min 0 W/m 19,3 km/h (3 Bft) 97,83 %
13.11.2023 17:24 13,1 C 11,7 C 9,4 C 97 % 998,9 hPa 0,0 l/m 0 min 0 min 0 W/m 19,3 km/h (3 Bft) 95,74 %
13.11.2023 17:26 13,1 C 11,7 C 9,4 C 97 % 998,8 hPa 0,0 l/m 0 min 0 min 0 W/m 19,3 km/h (3 Bft) 95,74 %
13.11.2023 17:28 12,9 C 11,7 C 9,4 C 97 % 998,8 hPa 0,0 l/m 0 min 0 min 0 W/m 16,1 km/h (3 Bft) 95,74 %
13.11.2023 17:30 12,9 C 11,7 C 8,9 C 97 % 998,8 hPa 0,0 l/m 0 min 0 min 0 W/m 16,1 km/h (3 Bft) 95,74 %
13.11.2023 17:32 12,9 C 11,7 C 8,9 C 97 % 999,0 hPa 0,0 l/m 0 min 0 min 0 W/m 12,9 km/h (3 Bft) 95,74 %
13.11.2023 17:34 12,9 C 11,7 C 8,9 C 96 % 998,9 hPa 0,0 l/m 0 min 0 min 0 W/m 12,9 km/h (3 Bft) 93,62 %
13.11.2023 17:36 12,8 C 11,7 C 8,9 C 96 % 999,1 hPa 0,0 l/m 0 min 0 min 0 W/m 19,3 km/h (3 Bft) 95,74 %
13.11.2023 17:38 12,8 C 11,7 C 8,9 C 96 % 999,1 hPa 0,0 l/m 0 min 0 min 0 W/m 16,1 km/h (3 Bft) 95,74 %
13.11.2023 17:40 12,8 C 11,7 C 8,9 C 96 % 999,1 hPa 0,0 l/m 0 min 0 min 0 W/m 19,3 km/h (3 Bft) 97,87 %
13.11.2023 17:42 12,8 C 11,7 C 8,9 C 96 % 999,2 hPa 0,0 l/m 0 min 0 min 0 W/m 22,5 km/h (4 Bft) 95,65 %
13.11.2023 17:44 12,7 C 11,7 C 8,9 C 96 % 999,3 hPa 0,0 l/m 0 min 0 min 0 W/m 22,5 km/h (4 Bft) 97,87 %
13.11.2023 17:46 12,8 C 11,7 C 8,9 C 96 % 999,3 hPa 0,0 l/m 0 min 0 min 0 W/m 16,1 km/h (3 Bft) 97,87 %
13.11.2023 17:48 12,7 C 11,7 C 8,9 C 95 % 999,3 hPa 0,0 l/m 0 min 0 min 0 W/m 35,4 km/h (5 Bft) 97,87 %
13.11.2023 17:50 12,7 C 11,7 C 8,9 C 95 % 999,3 hPa 0,0 l/m 0 min 0 min 0 W/m 19,3 km/h (3 Bft) 97,87 %
13.11.2023 17:52 12,7 C 11,7 C 8,9 C 95 % 999,4 hPa 0,0 l/m 0 min 0 min 0 W/m 19,3 km/h (3 Bft) 95,74 %
13.11.2023 17:54 12,7 C 11,7 C 8,9 C 95 % 999,4 hPa 0,0 l/m 0 min 0 min 0 W/m 22,5 km/h (4 Bft) 97,87 %
13.11.2023 17:56 12,6 C 11,7 C 8,9 C 95 % 999,4 hPa 0,0 l/m 0 min 0 min 0 W/m 19,3 km/h (3 Bft) 97,92 %
13.11.2023 17:58 12,6 C 11,7 C 8,9 C 95 % 999,4 hPa 0,0 l/m 0 min 0 min 0 W/m 19,3 km/h (3 Bft) 97,87 %
13.11.2023 18:00 12,6 C 11,7 C 8,3 C 94 % 999,5 hPa 0,0 l/m 0 min 0 min 0 W/m 12,9 km/h (3 Bft) 97,87 %
13.11.2023 18:02 12,6 C 11,7 C 8,3 C 94 % 999,5 hPa 0,0 l/m 0 min 0 min 0 W/m 19,3 km/h (3 Bft) 97,87 %
13.11.2023 18:04 12,6 C 11,7 C 8,3 C 94 % 999,5 hPa 0,0 l/m 0 min 0 min 0 W/m 22,5 km/h (4 Bft) 97,73 %
13.11.2023 18:08 12,6 C 11,7 C 8,3 C 93 % 999,6 hPa 0,0 l/m 0 min 0 min 0 W/m 16,1 km/h (3 Bft) 96,81 %
13.11.2023 18:10 12,6 C 11,7 C 8,3 C 93 % 999,7 hPa 0,0 l/m 0 min 0 min 0 W/m 16,1 km/h (3 Bft) 95,74 %
13.11.2023 18:12 12,5 C 11,7 C 8,3 C 93 % 999,7 hPa 0,0 l/m 0 min 0 min 0 W/m 12,9 km/h (3 Bft) 97,87 %
13.11.2023 18:16 12,5 C 11,7 C 8,3 C 93 % 999,8 hPa 0,0 l/m 0 min 0 min 0 W/m 22,5 km/h (4 Bft) 96,81 %
13.11.2023 18:18 12,4 C 11,7 C 8,3 C 93 % 999,8 hPa 0,0 l/m 0 min 0 min 0 W/m 16,1 km/h (3 Bft) 97,83 %
13.11.2023 18:20 12,4 C 11,7 C 8,3 C 92 % 999,8 hPa 0,0 l/m 0 min 0 min 0 W/m 16,1 km/h (3 Bft) 100,00 %
13.11.2023 18:22 12,4 C 11,7 C 8,3 C 92 % 999,9 hPa 0,0 l/m 0 min 0 min 0 W/m 25,7 km/h (4 Bft) 100,00 %
13.11.2023 18:24 12,4 C 11,7 C 8,3 C 92 % 1000,0 hPa 0,0 l/m 0 min 0 min 0 W/m 19,3 km/h (3 Bft) 97,87 %
13.11.2023 18:26 12,4 C 11,7 C 8,3 C 92 % 1000,0 hPa 0,0 l/m 0 min 0 min 0 W/m 19,3 km/h (3 Bft) 97,87 %
13.11.2023 18:28 12,4 C 11,7 C 8,3 C 91 % 1000,1 hPa 0,0 l/m 0 min 0 min 0 W/m 16,1 km/h (3 Bft) 100,00 %
13.11.2023 18:30 12,4 C 11,7 C 8,3 C 91 % 1000,1 hPa 0,0 l/m 0 min 0 min 0 W/m 19,3 km/h (3 Bft) 100,00 %
13.11.2023 18:32 12,3 C 11,7 C 8,3 C 91 % 1000,2 hPa 0,0 l/m 0 min 0 min 0 W/m 12,9 km/h (3 Bft) 100,00 %
13.11.2023 18:34 12,3 C 11,7 C 8,3 C 91 % 1000,3 hPa 0,0 l/m 0 min 0 min 0 W/m 16,1 km/h (3 Bft) 95,74 %
13.11.2023 18:36 12,3 C 11,7 C 8,3 C 91 % 1000,3 hPa 0,0 l/m 0 min 0 min 0 W/m 25,7 km/h (4 Bft) 100,00 %
13.11.2023 18:38 12,3 C 11,7 C 8,9 C 91 % 1000,3 hPa 0,0 l/m 0 min 0 min 0 W/m 29,0 km/h (5 Bft) 100,00 %
13.11.2023 18:40 12,3 C 11,7 C 8,9 C 90 % 1000,4 hPa 0,0 l/m 0 min 0 min 0 W/m 22,5 km/h (4 Bft) 100,00 %
13.11.2023 18:42 12,3 C 11,7 C 8,9 C 90 % 1000,5 hPa 0,0 l/m 0 min 0 min 0 W/m 22,5 km/h (4 Bft) 100,00 %
13.11.2023 18:44 12,3 C 11,7 C 8,3 C 90 % 1000,5 hPa 0,0 l/m 0 min 0 min 0 W/m 22,5 km/h (4 Bft) 100,00 %
13.11.2023 18:46 12,3 C 11,7 C 8,9 C 89 % 1000,6 hPa 0,0 l/m 0 min 0 min 0 W/m 25,7 km/h (4 Bft) 100,00 %
13.11.2023 18:48 12,4 C 11,7 C 8,9 C 89 % 1000,7 hPa 0,0 l/m 0 min 0 min 0 W/m 29,0 km/h (5 Bft) 95,74 %
13.11.2023 18:50 12,4 C 11,7 C 8,9 C 88 % 1000,5 hPa 0,0 l/m 0 min 0 min 0 W/m 29,0 km/h (5 Bft) 97,87 %
13.11.2023 18:52 12,4 C 11,7 C 8,9 C 87 % 1000,8 hPa 0,0 l/m 0 min 0 min 0 W/m 22,5 km/h (4 Bft) 100,00 %
13.11.2023 18:54 12,4 C 11,7 C 8,9 C 86 % 1000,8 hPa 0,0 l/m 0 min 0 min 0 W/m 51,5 km/h (7 Bft) 98,11 %
13.11.2023 18:56 12,5 C 11,7 C 8,3 C 85 % 1000,8 hPa 0,0 l/m 0 min 0 min 0 W/m 25,7 km/h (4 Bft) 97,87 %
13.11.2023 18:58 12,4 C 11,7 C 8,3 C 85 % 1001,0 hPa 0,0 l/m 0 min 0 min 0 W/m 25,7 km/h (4 Bft) 97,73 %
13.11.2023 19:00 12,4 C 11,7 C 8,3 C 84 % 1001,0 hPa 0,0 l/m 0 min 0 min 0 W/m 25,7 km/h (4 Bft) 97,87 %
13.11.2023 19:02 12,4 C 11,7 C 8,3 C 84 % 1000,9 hPa 0,0 l/m 0 min 0 min 0 W/m 25,7 km/h (4 Bft) 93,62 %
13.11.2023 19:04 12,4 C 11,7 C 8,3 C 84 % 1000,9 hPa 0,0 l/m 0 min 0 min 0 W/m 19,3 km/h (3 Bft) 94,87 %
13.11.2023 19:06 12,4 C 11,7 C 8,3 C 84 % 1001,0 hPa 0,0 l/m 0 min 0 min 0 W/m 25,7 km/h (4 Bft) 95,92 %
13.11.2023 19:08 12,3 C 11,7 C 8,3 C 83 % 1001,0 hPa 0,0 l/m 0 min 0 min 0 W/m 25,7 km/h (4 Bft) 93,48 %
13.11.2023 19:10 12,3 C 11,7 C 8,3 C 83 % 1001,0 hPa 0,0 l/m 0 min 0 min 0 W/m 25,7 km/h (4 Bft) 95,74 %
13.11.2023 19:12 12,3 C 11,7 C 8,3 C 83 % 1001,1 hPa 0,0 l/m 0 min 0 min 0 W/m 25,7 km/h (4 Bft) 95,74 %
13.11.2023 19:14 12,3 C 11,1 C 8,3 C 83 % 1001,2 hPa 0,0 l/m 0 min 0 min 0 W/m 12,9 km/h (3 Bft) 93,62 %
13.11.2023 19:16 12,2 C 11,1 C 8,3 C 83 % 1001,1 hPa 0,0 l/m 0 min 0 min 0 W/m 16,1 km/h (3 Bft) 93,62 %
13.11.2023 19:18 12,2 C 11,1 C 7,8 C 84 % 1001,1 hPa 0,0 l/m 0 min 0 min 0 W/m 25,7 km/h (4 Bft) 95,74 %
13.11.2023 19:20 12,1 C 11,1 C 7,8 C 84 % 1001,2 hPa 0,0 l/m 0 min 0 min 0 W/m 12,9 km/h (3 Bft) 93,62 %
13.11.2023 19:22 12,1 C 11,1 C 7,8 C 84 % 1001,2 hPa 0,0 l/m 0 min 0 min 0 W/m 25,7 km/h (4 Bft) 95,74 %
13.11.2023 19:24 12,1 C 11,1 C 7,8 C 84 % 1001,2 hPa 0,0 l/m 0 min 0 min 0 W/m 29,0 km/h (5 Bft) 93,62 %
13.11.2023 19:26 12,1 C 11,1 C 7,8 C 84 % 1001,2 hPa 0,0 l/m 0 min 0 min 0 W/m 25,7 km/h (4 Bft) 95,65 %
13.11.2023 19:28 12,1 C 11,1 C 8,3 C 84 % 1001,2 hPa 0,0 l/m 0 min 0 min 0 W/m 16,1 km/h (3 Bft) 95,74 %
13.11.2023 19:30 12,1 C 11,1 C 7,8 C 85 % 1001,2 hPa 0,0 l/m 0 min 0 min 0 W/m 22,5 km/h (4 Bft) 97,87 %
13.11.2023 19:32 12,0 C 11,1 C 7,8 C 85 % 1001,3 hPa 0,0 l/m 0 min 0 min 0 W/m 29,0 km/h (5 Bft) 97,87 %
13.11.2023 19:34 12,0 C 11,1 C 7,8 C 85 % 1001,3 hPa 0,0 l/m 0 min 0 min 0 W/m 22,5 km/h (4 Bft) 97,87 %
13.11.2023 19:36 11,9 C 11,1 C 7,8 C 85 % 1001,3 hPa 0,0 l/m 0 min 0 min 0 W/m 19,3 km/h (3 Bft) 100,00 %
13.11.2023 19:38 11,9 C 11,1 C 7,8 C 85 % 1001,4 hPa 0,0 l/m 0 min 0 min 0 W/m 19,3 km/h (3 Bft) 97,87 %
13.11.2023 19:40 11,9 C 11,1 C 7,8 C 86 % 1001,4 hPa 0,0 l/m 0 min 0 min 0 W/m 19,3 km/h (3 Bft) 95,74 %
13.11.2023 19:42 11,8 C 11,1 C 7,8 C 86 % 1001,3 hPa 0,0 l/m 0 min 0 min 0 W/m 22,5 km/h (4 Bft) 95,65 %
13.11.2023 19:44 11,8 C 11,1 C 7,8 C 86 % 1001,3 hPa 0,0 l/m 0 min 0 min 0 W/m 22,5 km/h (4 Bft) 100,00 %
13.11.2023 19:46 11,8 C 11,1 C 7,8 C 86 % 1001,3 hPa 0,0 l/m 0 min 0 min 0 W/m 22,5 km/h (4 Bft) 97,87 %
13.11.2023 19:48 11,8 C 11,1 C 7,8 C 86 % 1001,4 hPa 0,0 l/m 0 min 0 min 0 W/m 35,4 km/h (5 Bft) 100,00 %
13.11.2023 19:50 11,9 C 11,1 C 7,8 C 86 % 1001,3 hPa 0,0 l/m 0 min 0 min 0 W/m 19,3 km/h (3 Bft) 97,87 %
13.11.2023 19:52 11,8 C 11,1 C 7,8 C 86 % 1001,3 hPa 0,0 l/m 0 min 0 min 0 W/m 29,0 km/h (5 Bft) 100,00 %
13.11.2023 19:54 11,8 C 11,1 C 7,8 C 86 % 1001,3 hPa 0,0 l/m 0 min 0 min 0 W/m 22,5 km/h (4 Bft) 100,00 %
13.11.2023 19:56 11,8 C 11,1 C 7,8 C 86 % 1001,3 hPa 0,0 l/m 0 min 0 min 0 W/m 22,5 km/h (4 Bft) 100,00 %
13.11.2023 19:58 11,8 C 11,1 C 7,8 C 86 % 1001,3 hPa 0,0 l/m 0 min 0 min 0 W/m 16,1 km/h (3 Bft) 100,00 %
13.11.2023 20:00 11,8 C 10,6 C 7,8 C 86 % 1001,3 hPa 0,0 l/m 0 min 0 min 0 W/m 22,5 km/h (4 Bft) 100,00 %
13.11.2023 20:02 11,7 C 10,6 C 7,8 C 86 % 1001,4 hPa 0,0 l/m 0 min 0 min 0 W/m 19,3 km/h (3 Bft) 100,00 %
13.11.2023 20:04 11,7 C 10,6 C 7,8 C 86 % 1001,3 hPa 0,0 l/m 0 min 0 min 0 W/m 19,3 km/h (3 Bft) 100,00 %
13.11.2023 20:06 11,6 C 10,6 C 7,8 C 86 % 1001,5 hPa 0,0 l/m 0 min 0 min 0 W/m 19,3 km/h (3 Bft) 100,00 %
13.11.2023 20:08 11,6 C 10,6 C 7,8 C 86 % 1001,5 hPa 0,0 l/m 0 min 0 min 0 W/m 25,7 km/h (4 Bft) 100,00 %
13.11.2023 20:10 11,6 C 10,6 C 7,8 C 86 % 1001,6 hPa 0,0 l/m 0 min 0 min 0 W/m 16,1 km/h (3 Bft) 100,00 %
13.11.2023 20:12 11,6 C 10,6 C 7,8 C 86 % 1001,6 hPa 0,0 l/m 0 min 0 min 0 W/m 19,3 km/h (3 Bft) 97,87 %
13.11.2023 20:14 11,6 C 10,6 C 7,8 C 86 % 1001,6 hPa 0,0 l/m 0 min 0 min 0 W/m 16,1 km/h (3 Bft) 100,00 %
13.11.2023 20:16 11,6 C 10,6 C 7,8 C 86 % 1001,6 hPa 0,0 l/m 0 min 0 min 0 W/m 16,1 km/h (3 Bft) 100,00 %
13.11.2023 20:18 11,6 C 10,6 C 7,8 C 86 % 1001,6 hPa 0,0 l/m 0 min 0 min 0 W/m 25,7 km/h (4 Bft) 100,00 %
13.11.2023 20:20 11,6 C 10,6 C 7,8 C 86 % 1001,6 hPa 0,0 l/m 0 min 0 min 0 W/m 22,5 km/h (4 Bft) 100,00 %
13.11.2023 20:22 11,6 C 10,6 C 7,8 C 86 % 1001,6 hPa 0,0 l/m 0 min 0 min 0 W/m 19,3 km/h (3 Bft) 100,00 %
13.11.2023 20:24 11,6 C 10,6 C 7,8 C 86 % 1001,6 hPa 0,0 l/m 0 min 0 min 0 W/m 19,3 km/h (3 Bft) 100,00 %
13.11.2023 20:26 11,6 C 10,6 C 7,8 C 86 % 1001,8 hPa 0,0 l/m 0 min 0 min 0 W/m 19,3 km/h (3 Bft) 100,00 %
13.11.2023 20:28 11,6 C 10,6 C 7,8 C 86 % 1001,8 hPa 0,0 l/m 0 min 0 min 0 W/m 16,1 km/h (3 Bft) 100,00 %
13.11.2023 20:30 11,6 C 11,1 C 7,8 C 86 % 1001,8 hPa 0,0 l/m 0 min 0 min 0 W/m 38,6 km/h (5 Bft) 100,00 %
13.11.2023 20:32 11,6 C 11,1 C 7,8 C 86 % 1001,8 hPa 0,0 l/m 0 min 0 min 0 W/m 12,9 km/h (3 Bft) 100,00 %
13.11.2023 20:34 11,6 C 10,6 C 7,8 C 86 % 1001,9 hPa 0,0 l/m 0 min 0 min 0 W/m 12,9 km/h (3 Bft) 100,00 %
13.11.2023 20:36 11,6 C 10,6 C 7,8 C 87 % 1001,9 hPa 0,0 l/m 0 min 0 min 0 W/m 12,9 km/h (3 Bft) 100,00 %
13.11.2023 20:38 11,6 C 10,6 C 7,8 C 87 % 1002,0 hPa 0,0 l/m 0 min 0 min 0 W/m 16,1 km/h (3 Bft) 100,00 %
13.11.2023 20:40 11,6 C 10,6 C 7,8 C 87 % 1002,0 hPa 0,0 l/m 0 min 0 min 0 W/m 32,2 km/h (5 Bft) 97,87 %
13.11.2023 20:42 11,6 C 10,6 C 7,8 C 87 % 1002,0 hPa 0,0 l/m 0 min 0 min 0 W/m 22,5 km/h (4 Bft) 94,00 %
13.11.2023 20:44 11,6 C 10,6 C 7,8 C 87 % 1002,0 hPa 0,0 l/m 0 min 0 min 0 W/m 16,1 km/h (3 Bft) 93,62 %
13.11.2023 20:46 11,6 C 10,6 C 7,8 C 87 % 1002,0 hPa 0,0 l/m 0 min 0 min 0 W/m 22,5 km/h (4 Bft) 93,62 %
13.11.2023 20:48 11,5 C 10,6 C 7,8 C 87 % 1002,1 hPa 0,0 l/m 0 min 0 min 0 W/m 19,3 km/h (3 Bft) 95,74 %
13.11.2023 20:50 11,5 C 10,6 C 7,8 C 87 % 1002,0 hPa 0,0 l/m 0 min 0 min 0 W/m 19,3 km/h (3 Bft) 93,62 %
13.11.2023 20:52 11,5 C 10,6 C 7,8 C 87 % 1002,1 hPa 0,0 l/m 0 min 0 min 0 W/m 22,5 km/h (4 Bft) 95,65 %
13.11.2023 20:54 11,6 C 10,6 C 7,8 C 87 % 1002,2 hPa 0,0 l/m 0 min 0 min 0 W/m 19,3 km/h (3 Bft) 94,59 %
13.11.2023 20:56 11,6 C 10,6 C 7,8 C 87 % 1002,2 hPa 0,0 l/m 0 min 0 min 0 W/m 16,1 km/h (3 Bft) 95,74 %
13.11.2023 20:58 11,6 C 10,6 C 7,8 C 87 % 1002,2 hPa 0,0 l/m 0 min 0 min 0 W/m 16,1 km/h (3 Bft) 95,74 %
13.11.2023 21:00 11,5 C 10,6 C 7,8 C 87 % 1002,2 hPa 0,0 l/m 0 min 0 min 0 W/m 22,5 km/h (4 Bft) 95,74 %
13.11.2023 21:02 11,5 C 10,6 C 7,8 C 87 % 1002,2 hPa 0,0 l/m 0 min 0 min 0 W/m 22,5 km/h (4 Bft) 93,62 %
13.11.2023 21:04 11,5 C 10,6 C 7,8 C 87 % 1002,2 hPa 0,0 l/m 0 min 0 min 0 W/m 19,3 km/h (3 Bft) 93,02 %
13.11.2023 21:08 11,5 C 10,6 C 7,8 C 87 % 1002,3 hPa 0,0 l/m 0 min 0 min 0 W/m 22,5 km/h (4 Bft) 96,15 %
13.11.2023 21:10 11,5 C 10,6 C 7,8 C 87 % 1002,4 hPa 0,0 l/m 0 min 0 min 0 W/m 16,1 km/h (3 Bft) 95,74 %
13.11.2023 21:12 11,4 C 10,6 C 7,8 C 87 % 1002,4 hPa 0,0 l/m 0 min 0 min 0 W/m 19,3 km/h (3 Bft) 91,30 %
13.11.2023 21:14 11,4 C 10,6 C 7,8 C 87 % 1002,4 hPa 0,0 l/m 0 min 0 min 0 W/m 12,9 km/h (3 Bft) 93,62 %
13.11.2023 21:16 11,4 C 10,6 C 7,8 C 87 % 1002,5 hPa 0,0 l/m 0 min 0 min 0 W/m 16,1 km/h (3 Bft) 93,88 %
13.11.2023 21:18 11,4 C 10,6 C 7,8 C 87 % 1002,6 hPa 0,0 l/m 0 min 0 min 0 W/m 22,5 km/h (4 Bft) 93,62 %
13.11.2023 21:20 11,4 C 10,6 C 7,8 C 87 % 1002,6 hPa 0,0 l/m 0 min 0 min 0 W/m 16,1 km/h (3 Bft) 93,62 %
13.11.2023 21:22 11,3 C 10,6 C 7,8 C 87 % 1002,6 hPa 0,0 l/m 0 min 0 min 0 W/m 16,1 km/h (3 Bft) 95,74 %
13.11.2023 21:24 11,3 C 10,6 C 7,8 C 87 % 1002,5 hPa 0,0 l/m 0 min 0 min 0 W/m 22,5 km/h (4 Bft) 95,74 %
13.11.2023 21:26 11,4 C 10,6 C 7,8 C 87 % 1002,7 hPa 0,0 l/m 0 min 0 min 0 W/m 22,5 km/h (4 Bft) 95,74 %
13.11.2023 21:28 11,4 C 10,6 C 7,8 C 87 % 1002,6 hPa 0,0 l/m 0 min 0 min 0 W/m 22,5 km/h (4 Bft) 97,87 %
13.11.2023 21:30 11,3 C 10,6 C 7,8 C 87 % 1002,6 hPa 0,0 l/m 0 min 0 min 0 W/m 16,1 km/h (3 Bft) 97,83 %
13.11.2023 21:32 11,3 C 10,6 C 7,8 C 87 % 1002,6 hPa 0,0 l/m 0 min 0 min 0 W/m 25,7 km/h (4 Bft) 95,74 %
13.11.2023 21:34 11,3 C 10,6 C 7,8 C 87 % 1002,6 hPa 0,0 l/m 0 min 0 min 0 W/m 16,1 km/h (3 Bft) 95,74 %
13.11.2023 21:36 11,3 C 10,6 C 7,2 C 87 % 1002,6 hPa 0,0 l/m 0 min 0 min 0 W/m 16,1 km/h (3 Bft) 95,74 %
13.11.2023 21:38 11,3 C 10,6 C 7,2 C 87 % 1002,6 hPa 0,0 l/m 0 min 0 min 0 W/m 22,5 km/h (4 Bft) 97,87 %
13.11.2023 21:40 11,3 C 10,6 C 7,2 C 87 % 1002,6 hPa 0,0 l/m 0 min 0 min 0 W/m 19,3 km/h (3 Bft) 97,87 %
13.11.2023 21:42 11,3 C 10,6 C 7,2 C 88 % 1002,6 hPa 0,0 l/m 0 min 0 min 0 W/m 22,5 km/h (4 Bft) 95,74 %
13.11.2023 21:44 11,3 C 10,6 C 7,8 C 88 % 1002,7 hPa 0,0 l/m 0 min 0 min 0 W/m 19,3 km/h (3 Bft) 97,87 %
13.11.2023 21:46 11,2 C 10,6 C 7,2 C 88 % 1002,7 hPa 0,0 l/m 0 min 0 min 0 W/m 19,3 km/h (3 Bft) 97,87 %
13.11.2023 21:48 11,2 C 10,6 C 7,2 C 88 % 1002,7 hPa 0,0 l/m 0 min 0 min 0 W/m 25,7 km/h (4 Bft) 95,65 %
13.11.2023 21:50 11,2 C 10,6 C 7,2 C 88 % 1002,8 hPa 0,0 l/m 0 min 0 min 0 W/m 19,3 km/h (3 Bft) 97,87 %
13.11.2023 21:52 11,2 C 10,6 C 7,2 C 88 % 1002,7 hPa 0,0 l/m 0 min 0 min 0 W/m 19,3 km/h (3 Bft) 97,87 %
13.11.2023 21:54 11,2 C 10,6 C 7,2 C 88 % 1002,7 hPa 0,0 l/m 0 min 0 min 0 W/m 16,1 km/h (3 Bft) 97,87 %
13.11.2023 21:56 11,2 C 10,6 C 7,2 C 88 % 1002,7 hPa 0,0 l/m 0 min 0 min 0 W/m 19,3 km/h (3 Bft) 97,87 %
13.11.2023 21:58 11,2 C 10,6 C 7,2 C 88 % 1002,7 hPa 0,0 l/m 0 min 0 min 0 W/m 16,1 km/h (3 Bft) 97,62 %
13.11.2023 22:00 11,2 C 10,6 C 7,2 C 88 % 1002,8 hPa 0,0 l/m 0 min 0 min 0 W/m 12,9 km/h (3 Bft) 97,87 %
13.11.2023 22:02 11,2 C 10,6 C 7,2 C 88 % 1002,9 hPa 0,0 l/m 0 min 0 min 0 W/m 16,1 km/h (3 Bft) 97,87 %
13.11.2023 22:04 11,2 C 10,6 C 7,2 C 88 % 1002,9 hPa 0,0 l/m 0 min 0 min 0 W/m 16,1 km/h (3 Bft) 98,11 %
13.11.2023 22:08 11,2 C 10,6 C 7,2 C 88 % 1002,9 hPa 0,0 l/m 0 min 0 min 0 W/m 19,3 km/h (3 Bft) 96,39 %
13.11.2023 22:09 11,2 C 10,6 C 7,2 C 88 % 1002,9 hPa 0,0 l/m 0 min 0 min 0 W/m 12,9 km/h (3 Bft) 100,00 %
13.11.2023 22:12 11,2 C 10,6 C 7,2 C 88 % 1002,9 hPa 0,0 l/m 0 min 0 min 0 W/m 29,0 km/h (5 Bft) 100,00 %
13.11.2023 22:14 11,1 C 10,6 C 7,2 C 89 % 1003,0 hPa 0,0 l/m 0 min 0 min 0 W/m 19,3 km/h (3 Bft) 100,00 %
13.11.2023 22:16 11,1 C 10,6 C 7,2 C 89 % 1003,0 hPa 0,0 l/m 0 min 0 min 0 W/m 19,3 km/h (3 Bft) 97,87 %
13.11.2023 22:18 11,1 C 10,6 C 7,2 C 89 % 1003,0 hPa 0,0 l/m 0 min 0 min 0 W/m 22,5 km/h (4 Bft) 100,00 %
13.11.2023 22:20 11,2 C 10,6 C 7,2 C 89 % 1003,1 hPa 0,0 l/m 0 min 0 min 0 W/m 16,1 km/h (3 Bft) 100,00 %
13.11.2023 22:22 11,2 C 10,6 C 7,2 C 89 % 1003,0 hPa 0,0 l/m 0 min 0 min 0 W/m 29,0 km/h (5 Bft) 100,00 %
13.11.2023 22:24 11,2 C 10,6 C 7,2 C 89 % 1003,0 hPa 0,0 l/m 0 min 0 min 0 W/m 19,3 km/h (3 Bft) 100,00 %
13.11.2023 22:26 11,2 C 10,6 C 7,2 C 88 % 1003,0 hPa 0,0 l/m 0 min 0 min 0 W/m 32,2 km/h (5 Bft) 100,00 %
13.11.2023 22:28 11,2 C 10,6 C 7,2 C 88 % 1003,0 hPa 0,0 l/m 0 min 0 min 0 W/m 16,1 km/h (3 Bft) 100,00 %
13.11.2023 22:30 11,2 C 10,6 C 7,2 C 88 % 1003,0 hPa 0,0 l/m 0 min 0 min 0 W/m 16,1 km/h (3 Bft) 100,00 %
13.11.2023 22:32 11,2 C 10,6 C 7,2 C 88 % 1003,1 hPa 0,0 l/m 0 min 0 min 0 W/m 19,3 km/h (3 Bft) 95,74 %
13.11.2023 22:34 11,2 C 10,6 C 7,2 C 88 % 1003,1 hPa 0,0 l/m 0 min 0 min 0 W/m 25,7 km/h (4 Bft) 100,00 %
13.11.2023 22:36 11,2 C 10,6 C 7,2 C 88 % 1003,0 hPa 0,0 l/m 0 min 0 min 0 W/m 16,1 km/h (3 Bft) 100,00 %
13.11.2023 22:38 11,2 C 10,6 C 7,2 C 88 % 1003,1 hPa 0,0 l/m 0 min 0 min 0 W/m 19,3 km/h (3 Bft) 100,00 %
13.11.2023 22:40 11,2 C 10,6 C 7,2 C 88 % 1003,2 hPa 0,0 l/m 0 min 0 min 0 W/m 19,3 km/h (3 Bft) 95,74 %
13.11.2023 22:42 11,2 C 10,6 C 7,2 C 88 % 1003,2 hPa 0,0 l/m 0 min 0 min 0 W/m 9,7 km/h (2 Bft) 97,87 %
13.11.2023 22:44 11,2 C 10,6 C 7,2 C 88 % 1003,1 hPa 0,0 l/m 0 min 0 min 0 W/m 19,3 km/h (3 Bft) 97,87 %
13.11.2023 22:46 11,1 C 10,0 C 7,2 C 89 % 1003,1 hPa 0,0 l/m 0 min 0 min 0 W/m 16,1 km/h (3 Bft) 97,87 %
13.11.2023 22:48 11,1 C 10,6 C 7,2 C 89 % 1003,0 hPa 0,0 l/m 0 min 0 min 0 W/m 32,2 km/h (5 Bft) 97,87 %
13.11.2023 22:50 11,1 C 10,0 C 7,2 C 89 % 1003,0 hPa 0,0 l/m 0 min 0 min 0 W/m 16,1 km/h (3 Bft) 93,62 %
13.11.2023 22:52 11,1 C 10,0 C 7,2 C 89 % 1003,1 hPa 0,0 l/m 0 min 0 min 0 W/m 6,4 km/h (2 Bft) 97,87 %
13.11.2023 22:54 11,1 C 10,0 C 7,2 C 89 % 1003,2 hPa 0,0 l/m 0 min 0 min 0 W/m 19,3 km/h (3 Bft) 97,87 %
13.11.2023 22:56 11,1 C 10,0 C 7,2 C 89 % 1003,2 hPa 0,0 l/m 0 min 0 min 0 W/m 25,7 km/h (4 Bft) 97,87 %
13.11.2023 22:58 11,1 C 10,6 C 7,2 C 89 % 1003,2 hPa 0,0 l/m 0 min 0 min 0 W/m 41,8 km/h (6 Bft) 97,83 %
13.11.2023 23:00 11,1 C 10,6 C 7,2 C 89 % 1003,1 hPa 0,0 l/m 0 min 0 min 0 W/m 19,3 km/h (3 Bft) 95,74 %
13.11.2023 23:02 11,1 C 10,6 C 7,2 C 89 % 1003,1 hPa 0,0 l/m 0 min 0 min 0 W/m 25,7 km/h (4 Bft) 97,78 %
13.11.2023 23:04 11,1 C 10,0 C 7,2 C 89 % 1003,0 hPa 0,0 l/m 0 min 0 min 0 W/m 22,5 km/h (4 Bft) 97,78 %
13.11.2023 23:10 11,0 C 10,0 C 7,2 C 89 % 1003,3 hPa 0,0 l/m 0 min 0 min 0 W/m 22,5 km/h (4 Bft) 98,58 %
13.11.2023 23:12 11,0 C 10,0 C 7,2 C 89 % 1003,3 hPa 0,0 l/m 0 min 0 min 0 W/m 25,7 km/h (4 Bft) 100,00 %
13.11.2023 23:14 10,9 C 10,0 C 7,2 C 89 % 1003,3 hPa 0,0 l/m 0 min 0 min 0 W/m 19,3 km/h (3 Bft) 100,00 %
13.11.2023 23:16 10,9 C 10,0 C 7,2 C 89 % 1003,3 hPa 0,0 l/m 0 min 0 min 0 W/m 16,1 km/h (3 Bft) 97,87 %
13.11.2023 23:18 10,9 C 10,0 C 7,2 C 89 % 1003,3 hPa 0,0 l/m 0 min 0 min 0 W/m 29,0 km/h (5 Bft) 97,87 %
13.11.2023 23:20 10,9 C 10,0 C 7,2 C 89 % 1003,4 hPa 0,0 l/m 0 min 0 min 0 W/m 19,3 km/h (3 Bft) 100,00 %
13.11.2023 23:22 10,9 C 10,0 C 7,2 C 89 % 1003,4 hPa 0,0 l/m 0 min 0 min 0 W/m 25,7 km/h (4 Bft) 100,00 %
13.11.2023 23:24 10,9 C 10,0 C 7,2 C 89 % 1003,4 hPa 0,0 l/m 0 min 0 min 0 W/m 22,5 km/h (4 Bft) 97,87 %
13.11.2023 23:26 10,9 C 10,0 C 7,2 C 89 % 1003,3 hPa 0,0 l/m 0 min 0 min 0 W/m 25,7 km/h (4 Bft) 97,87 %
13.11.2023 23:28 10,9 C 10,0 C 7,2 C 89 % 1003,3 hPa 0,0 l/m 0 min 0 min 0 W/m 29,0 km/h (5 Bft) 97,83 %
13.11.2023 23:30 10,9 C 10,0 C 7,2 C 89 % 1003,3 hPa 0,0 l/m 0 min 0 min 0 W/m 19,3 km/h (3 Bft) 100,00 %
13.11.2023 23:32 10,9 C 10,0 C 7,2 C 89 % 1003,3 hPa 0,0 l/m 0 min 0 min 0 W/m 29,0 km/h (5 Bft) 100,00 %
13.11.2023 23:34 10,9 C 10,0 C 7,2 C 89 % 1003,3 hPa 0,0 l/m 0 min 0 min 0 W/m 19,3 km/h (3 Bft) 93,62 %
13.11.2023 23:36 10,9 C 10,0 C 7,2 C 89 % 1003,5 hPa 0,0 l/m 0 min 0 min 0 W/m 25,7 km/h (4 Bft) 100,00 %
13.11.2023 23:38 10,9 C 10,0 C 7,2 C 89 % 1003,5 hPa 0,0 l/m 0 min 0 min 0 W/m 22,5 km/h (4 Bft) 100,00 %
13.11.2023 23:40 11,0 C 10,6 C 7,2 C 89 % 1003,5 hPa 0,0 l/m 0 min 0 min 0 W/m 22,5 km/h (4 Bft) 93,62 %
13.11.2023 23:42 11,0 C 10,6 C 7,2 C 89 % 1003,4 hPa 0,0 l/m 0 min 0 min 0 W/m 35,4 km/h (5 Bft) 97,87 %
13.11.2023 23:44 11,1 C 10,6 C 7,2 C 89 % 1003,4 hPa 0,0 l/m 0 min 0 min 0 W/m 25,7 km/h (4 Bft) 97,87 %
13.11.2023 23:46 11,1 C 10,0 C 7,2 C 89 % 1003,3 hPa 0,0 l/m 0 min 0 min 0 W/m 19,3 km/h (3 Bft) 97,87 %
13.11.2023 23:48 11,0 C 10,0 C 7,2 C 88 % 1003,3 hPa 0,0 l/m 0 min 0 min 0 W/m 22,5 km/h (4 Bft) 97,83 %
13.11.2023 23:50 11,0 C 10,0 C 7,2 C 89 % 1003,4 hPa 0,0 l/m 0 min 0 min 0 W/m 16,1 km/h (3 Bft) 95,74 %
13.11.2023 23:52 11,0 C 10,0 C 7,2 C 89 % 1003,5 hPa 0,0 l/m 0 min 0 min 0 W/m 29,0 km/h (5 Bft) 97,87 %
13.11.2023 23:54 10,9 C 10,0 C 7,2 C 89 % 1003,4 hPa 0,0 l/m 0 min 0 min 0 W/m 16,1 km/h (3 Bft) 96,30 %
13.11.2023 23:56 10,9 C 10,0 C 7,2 C 89 % 1003,4 hPa 0,0 l/m 0 min 0 min 0 W/m 19,3 km/h (3 Bft) 95,74 %
13.11.2023 23:58 10,9 C 10,0 C 7,2 C 89 % 1003,4 hPa 0,0 l/m 0 min 0 min 0 W/m 22,5 km/h (4 Bft) 95,83 %
_ Min-Zeit 00:00 00:00 00:00 19:08 15:42 - - - - 00:00 05:10
Minimum _ 4,6 C 3,9 C 1,7 C 83 % 997,8 hPa - - - - 0,0 km/h (0 Bft) 51,16 %
_ Max-Zeit 15:14 14:14 14:46 09:50 00:02 15:36 16:14 09:10 12:04 18:54 00:14
Maximum _ 13,9 C 12,8 C 10,6 C 100 % 1009,6 hPa 0,8 l/m 2 min 5 min 106 W/m 51,5 km/h
SW (7 Bft)
100,00 %
Durchschnitt _ 9,4 C 8,7 C 6,0 C 96 % 1003,5 hPa #12,2 l/m #6 min. #5:13 h 24 W/m 12,8 km/h (3 Bft) 97,35 %
© 2023 W. Hausmann